<?xml version="1.0" encoding="UTF-8" standalone="no" ?>
<gpx xmlns="http://www.topografix.com/GPX/1/1" creator="CompeGPS" version="1.1" xmlns:xsi="http://www.w3.org/2001/XMLSchema-instance" xsi:schemaLocation="http://www.topografix.com/GPX/1/1 http://www.topografix.com/GPX/1/1/gpx.xsd http://www.garmin.com/xmlschemas/GpxExtensions/v3 http://www.garmin.com/xmlschemas/GpxExtensionsv3.xsd http://www.garmin.com/xmlschemas/TrackPointExtension/v1 http://www.garmin.com/xmlschemas/TrackPointExtensionv1.xsd" xmlns:gpxtpx="http://www.garmin.com/xmlschemas/TrackPointExtension/v1">
  <metadata>
    <link href="http://www.compegps.com">
      <text>CompeGPS TEAM, SL</text>
    </link>
    <time>2020-05-23T19:47:06Z</time>
    <bounds maxlat="42.731146" maxlon="0.696940" minlat="42.713197" minlon="0.653128"/>
  </metadata>
    <wpt lat="42.728262" lon="0.654644">
    <ele>1643.1</ele>
    <time>2020-05-24T07:09:34Z</time>
    <name>Passage des chevres</name>
    <desc></desc>
    <sym>Waypoint</sym>
  </wpt>
  <wpt lat="42.722815" lon="0.664564">
    <ele>1745.8</ele>
    <time>2020-05-24T08:54:48Z</time>
    <name>Cabane de Roumingau</name>
    <desc></desc>
    <sym>Waypoint</sym>
  </wpt>
  <wpt lat="42.727230" lon="0.677761">
    <ele>2003.7</ele>
    <time>2020-05-24T08:55:05Z</time>
    <name>Pas de Vilamos</name>
    <desc></desc>
    <sym>Waypoint</sym>
  </wpt>
  <wpt lat="42.723263" lon="0.679981">
    <ele>2139.5</ele>
    <time>2020-05-24T08:55:20Z</time>
    <name>Pic de Pouylane</name>
    <desc></desc>
    <sym>Waypoint</sym>
  </wpt>
  <wpt lat="42.720352" lon="0.689550">
    <ele>2226.3</ele>
    <time>2020-05-24T08:55:37Z</time>
    <name>Cap de Poilaner</name>
    <desc></desc>
    <sym>Waypoint</sym>
  </wpt>
  <wpt lat="42.718058" lon="0.696940">
    <ele>2193.3</ele>
    <time>2020-05-24T08:55:47Z</time>
    <name>Tuc de l&apos;Entecade</name>
    <desc></desc>
    <sym>Waypoint</sym>
  </wpt>
  <wpt lat="42.716874" lon="0.682043">
    <ele>1975.1</ele>
    <time>2020-05-24T08:56:05Z</time>
    <name>Cabanes Arro</name>
    <desc></desc>
    <sym>Waypoint</sym>
  </wpt>
  <wpt lat="42.713488" lon="0.688917">
    <ele>2043.4</ele>
    <time>2020-05-24T08:56:37Z</time>
    <name>Etang de Poriaca</name>
    <desc></desc>
    <sym>Waypoint</sym>
  </wpt>
  <wpt lat="42.718538" lon="0.667806">
    <ele>1755.8</ele>
    <time>2020-05-24T08:57:25Z</time>
    <name>Croisement de sentiers</name>
    <desc></desc>
    <sym>Waypoint</sym>
  </wpt>
<trk>
    <name>entecade</name>
    <userMyTwoNav></userMyTwoNav>
    <serialNumber></serialNumber>
    <trkseg>
      <trkpt lat="42.722567" lon="0.653171">
        <ele>1351.2</ele>
        <time>2020-05-21T08:10:39Z</time>
      </trkpt>
      <trkpt lat="42.722466" lon="0.653210">
        <ele>1356.3</ele>
        <time>2020-05-21T08:10:55Z</time>
      </trkpt>
      <trkpt lat="42.722339" lon="0.653227">
        <ele>1359.6</ele>
        <time>2020-05-21T08:11:10Z</time>
      </trkpt>
      <trkpt lat="42.722216" lon="0.653259">
        <ele>1362.9</ele>
        <time>2020-05-21T08:11:21Z</time>
      </trkpt>
      <trkpt lat="42.722111" lon="0.653289">
        <ele>1366.6</ele>
        <time>2020-05-21T08:11:32Z</time>
      </trkpt>
      <trkpt lat="42.721997" lon="0.653299">
        <ele>1370.1</ele>
        <time>2020-05-21T08:11:47Z</time>
      </trkpt>
      <trkpt lat="42.721898" lon="0.653355">
        <ele>1374.1</ele>
        <time>2020-05-21T08:12:02Z</time>
      </trkpt>
      <trkpt lat="42.721791" lon="0.653436">
        <ele>1378.0</ele>
        <time>2020-05-21T08:12:16Z</time>
      </trkpt>
      <trkpt lat="42.721690" lon="0.653531">
        <ele>1380.6</ele>
        <time>2020-05-21T08:12:27Z</time>
      </trkpt>
      <trkpt lat="42.721615" lon="0.653643">
        <ele>1382.9</ele>
        <time>2020-05-21T08:12:37Z</time>
      </trkpt>
      <trkpt lat="42.721522" lon="0.653755">
        <ele>1385.3</ele>
        <time>2020-05-21T08:12:48Z</time>
      </trkpt>
      <trkpt lat="42.721452" lon="0.653854">
        <ele>1387.1</ele>
        <time>2020-05-21T08:13:00Z</time>
      </trkpt>
      <trkpt lat="42.721399" lon="0.653988">
        <ele>1388.6</ele>
        <time>2020-05-21T08:13:10Z</time>
      </trkpt>
      <trkpt lat="42.721327" lon="0.654198">
        <ele>1392.4</ele>
        <time>2020-05-21T08:13:26Z</time>
      </trkpt>
      <trkpt lat="42.721244" lon="0.654301">
        <ele>1395.7</ele>
        <time>2020-05-21T08:13:37Z</time>
      </trkpt>
      <trkpt lat="42.721181" lon="0.654390">
        <ele>1399.2</ele>
        <time>2020-05-21T08:13:48Z</time>
      </trkpt>
      <trkpt lat="42.721116" lon="0.654474">
        <ele>1402.7</ele>
        <time>2020-05-21T08:14:01Z</time>
      </trkpt>
      <trkpt lat="42.721099" lon="0.654569">
        <ele>1413.8</ele>
        <time>2020-05-21T08:14:58Z</time>
      </trkpt>
      <trkpt lat="42.721202" lon="0.654541">
        <ele>1416.7</ele>
        <time>2020-05-21T08:15:11Z</time>
      </trkpt>
      <trkpt lat="42.721275" lon="0.654476">
        <ele>1418.2</ele>
        <time>2020-05-21T08:15:21Z</time>
      </trkpt>
      <trkpt lat="42.721364" lon="0.654492">
        <ele>1419.9</ele>
        <time>2020-05-21T08:15:33Z</time>
      </trkpt>
      <trkpt lat="42.721443" lon="0.654583">
        <ele>1422.4</ele>
        <time>2020-05-21T08:15:44Z</time>
      </trkpt>
      <trkpt lat="42.721513" lon="0.654685">
        <ele>1426.1</ele>
        <time>2020-05-21T08:15:58Z</time>
      </trkpt>
      <trkpt lat="42.721605" lon="0.654728">
        <ele>1430.9</ele>
        <time>2020-05-21T08:16:13Z</time>
      </trkpt>
      <trkpt lat="42.721655" lon="0.654781">
        <ele>1436.3</ele>
        <time>2020-05-21T08:16:35Z</time>
      </trkpt>
      <trkpt lat="42.721708" lon="0.654894">
        <ele>1439.2</ele>
        <time>2020-05-21T08:16:50Z</time>
      </trkpt>
      <trkpt lat="42.721722" lon="0.654944">
        <ele>1449.9</ele>
        <time>2020-05-21T08:17:57Z</time>
      </trkpt>
      <trkpt lat="42.721800" lon="0.654989">
        <ele>1457.2</ele>
        <time>2020-05-21T08:18:39Z</time>
      </trkpt>
      <trkpt lat="42.721901" lon="0.655001">
        <ele>1460.7</ele>
        <time>2020-05-21T08:18:52Z</time>
      </trkpt>
      <trkpt lat="42.721999" lon="0.655017">
        <ele>1465.1</ele>
        <time>2020-05-21T08:19:06Z</time>
      </trkpt>
      <trkpt lat="42.722098" lon="0.655039">
        <ele>1469.3</ele>
        <time>2020-05-21T08:19:20Z</time>
      </trkpt>
      <trkpt lat="42.722082" lon="0.655161">
        <ele>1474.0</ele>
        <time>2020-05-21T08:19:37Z</time>
      </trkpt>
      <trkpt lat="42.722050" lon="0.655340">
        <ele>1478.7</ele>
        <time>2020-05-21T08:19:54Z</time>
      </trkpt>
      <trkpt lat="42.722028" lon="0.655529">
        <ele>1482.4</ele>
        <time>2020-05-21T08:20:10Z</time>
      </trkpt>
      <trkpt lat="42.722029" lon="0.655665">
        <ele>1486.9</ele>
        <time>2020-05-21T08:20:27Z</time>
      </trkpt>
      <trkpt lat="42.722137" lon="0.655633">
        <ele>1490.7</ele>
        <time>2020-05-21T08:20:45Z</time>
      </trkpt>
      <trkpt lat="42.722253" lon="0.655565">
        <ele>1497.3</ele>
        <time>2020-05-21T08:21:05Z</time>
      </trkpt>
      <trkpt lat="42.722375" lon="0.655436">
        <ele>1501.9</ele>
        <time>2020-05-21T08:21:22Z</time>
      </trkpt>
      <trkpt lat="42.722482" lon="0.655422">
        <ele>1505.4</ele>
        <time>2020-05-21T08:21:37Z</time>
      </trkpt>
      <trkpt lat="42.722571" lon="0.655361">
        <ele>1507.8</ele>
        <time>2020-05-21T08:21:50Z</time>
      </trkpt>
      <trkpt lat="42.722673" lon="0.655349">
        <ele>1511.8</ele>
        <time>2020-05-21T08:22:09Z</time>
      </trkpt>
      <trkpt lat="42.722767" lon="0.655299">
        <ele>1516.5</ele>
        <time>2020-05-21T08:22:28Z</time>
      </trkpt>
      <trkpt lat="42.722849" lon="0.655229">
        <ele>1522.1</ele>
        <time>2020-05-21T08:22:49Z</time>
      </trkpt>
      <trkpt lat="42.722945" lon="0.655162">
        <ele>1526.4</ele>
        <time>2020-05-21T08:23:07Z</time>
      </trkpt>
      <trkpt lat="42.723038" lon="0.655074">
        <ele>1533.1</ele>
        <time>2020-05-21T08:23:26Z</time>
      </trkpt>
      <trkpt lat="42.723151" lon="0.655001">
        <ele>1537.2</ele>
        <time>2020-05-21T08:23:43Z</time>
      </trkpt>
      <trkpt lat="42.723273" lon="0.654979">
        <ele>1541.6</ele>
        <time>2020-05-21T08:24:02Z</time>
      </trkpt>
      <trkpt lat="42.723365" lon="0.655045">
        <ele>1545.2</ele>
        <time>2020-05-21T08:24:20Z</time>
      </trkpt>
      <trkpt lat="42.723457" lon="0.655143">
        <ele>1549.4</ele>
        <time>2020-05-21T08:24:37Z</time>
      </trkpt>
      <trkpt lat="42.723586" lon="0.655170">
        <ele>1550.9</ele>
        <time>2020-05-21T08:24:52Z</time>
      </trkpt>
      <trkpt lat="42.723662" lon="0.655220">
        <ele>1547.3</ele>
        <time>2020-05-21T08:25:06Z</time>
      </trkpt>
      <trkpt lat="42.723697" lon="0.655113">
        <ele>1551.5</ele>
        <time>2020-05-21T08:25:25Z</time>
      </trkpt>
      <trkpt lat="42.723754" lon="0.654948">
        <ele>1555.3</ele>
        <time>2020-05-21T08:25:38Z</time>
      </trkpt>
      <trkpt lat="42.723873" lon="0.654795">
        <ele>1558.4</ele>
        <time>2020-05-21T08:25:54Z</time>
      </trkpt>
      <trkpt lat="42.723968" lon="0.654676">
        <ele>1564.1</ele>
        <time>2020-05-21T08:26:14Z</time>
      </trkpt>
      <trkpt lat="42.724004" lon="0.654770">
        <ele>1569.4</ele>
        <time>2020-05-21T08:26:33Z</time>
      </trkpt>
      <trkpt lat="42.724098" lon="0.654721">
        <ele>1575.0</ele>
        <time>2020-05-21T08:26:57Z</time>
      </trkpt>
      <trkpt lat="42.724141" lon="0.654588">
        <ele>1580.3</ele>
        <time>2020-05-21T08:27:17Z</time>
      </trkpt>
      <trkpt lat="42.724194" lon="0.654457">
        <ele>1585.5</ele>
        <time>2020-05-21T08:27:37Z</time>
      </trkpt>
      <trkpt lat="42.724268" lon="0.654379">
        <ele>1588.8</ele>
        <time>2020-05-21T08:27:56Z</time>
      </trkpt>
      <trkpt lat="42.724345" lon="0.654334">
        <ele>1593.1</ele>
        <time>2020-05-21T08:28:13Z</time>
      </trkpt>
      <trkpt lat="42.724427" lon="0.654293">
        <ele>1597.2</ele>
        <time>2020-05-21T08:28:30Z</time>
      </trkpt>
      <trkpt lat="42.724489" lon="0.654183">
        <ele>1601.6</ele>
        <time>2020-05-21T08:28:49Z</time>
      </trkpt>
      <trkpt lat="42.724614" lon="0.654108">
        <ele>1606.1</ele>
        <time>2020-05-21T08:29:09Z</time>
      </trkpt>
      <trkpt lat="42.724732" lon="0.653990">
        <ele>1610.7</ele>
        <time>2020-05-21T08:29:29Z</time>
      </trkpt>
      <trkpt lat="42.724816" lon="0.653910">
        <ele>1611.0</ele>
        <time>2020-05-21T08:29:47Z</time>
      </trkpt>
      <trkpt lat="42.724901" lon="0.653870">
        <ele>1611.5</ele>
        <time>2020-05-21T08:30:10Z</time>
      </trkpt>
      <trkpt lat="42.724972" lon="0.653777">
        <ele>1611.9</ele>
        <time>2020-05-21T08:30:30Z</time>
      </trkpt>
      <trkpt lat="42.725035" lon="0.653680">
        <ele>1612.6</ele>
        <time>2020-05-21T08:30:46Z</time>
      </trkpt>
      <trkpt lat="42.725129" lon="0.653657">
        <ele>1613.0</ele>
        <time>2020-05-21T08:31:13Z</time>
      </trkpt>
      <trkpt lat="42.725228" lon="0.653639">
        <ele>1613.1</ele>
        <time>2020-05-21T08:31:35Z</time>
      </trkpt>
      <trkpt lat="42.725300" lon="0.653515">
        <ele>1613.2</ele>
        <time>2020-05-21T08:31:47Z</time>
      </trkpt>
      <trkpt lat="42.725398" lon="0.653440">
        <ele>1614.0</ele>
        <time>2020-05-21T08:31:59Z</time>
      </trkpt>
      <trkpt lat="42.725466" lon="0.653382">
        <ele>1614.8</ele>
        <time>2020-05-21T08:33:22Z</time>
      </trkpt>
      <trkpt lat="42.725563" lon="0.653388">
        <ele>1614.8</ele>
        <time>2020-05-21T08:33:42Z</time>
      </trkpt>
      <trkpt lat="42.725656" lon="0.653370">
        <ele>1614.9</ele>
        <time>2020-05-21T08:34:03Z</time>
      </trkpt>
      <trkpt lat="42.725766" lon="0.653362">
        <ele>1615.3</ele>
        <time>2020-05-21T08:34:24Z</time>
      </trkpt>
      <trkpt lat="42.725861" lon="0.653312">
        <ele>1615.4</ele>
        <time>2020-05-21T08:34:41Z</time>
      </trkpt>
      <trkpt lat="42.725962" lon="0.653290">
        <ele>1615.9</ele>
        <time>2020-05-21T08:35:09Z</time>
      </trkpt>
      <trkpt lat="42.726062" lon="0.653244">
        <ele>1616.3</ele>
        <time>2020-05-21T08:35:38Z</time>
      </trkpt>
      <trkpt lat="42.726184" lon="0.653200">
        <ele>1616.3</ele>
        <time>2020-05-21T08:35:54Z</time>
      </trkpt>
      <trkpt lat="42.726309" lon="0.653212">
        <ele>1616.3</ele>
        <time>2020-05-21T08:36:09Z</time>
      </trkpt>
      <trkpt lat="42.726425" lon="0.653166">
        <ele>1616.6</ele>
        <time>2020-05-21T08:36:21Z</time>
      </trkpt>
      <trkpt lat="42.726531" lon="0.653192">
        <ele>1616.7</ele>
        <time>2020-05-21T08:36:38Z</time>
      </trkpt>
      <trkpt lat="42.726623" lon="0.653171">
        <ele>1616.8</ele>
        <time>2020-05-21T08:37:02Z</time>
      </trkpt>
      <trkpt lat="42.726708" lon="0.653188">
        <ele>1617.0</ele>
        <time>2020-05-21T08:37:25Z</time>
      </trkpt>
      <trkpt lat="42.726660" lon="0.653268">
        <ele>1617.9</ele>
        <time>2020-05-21T08:37:44Z</time>
      </trkpt>
      <trkpt lat="42.726763" lon="0.653216">
        <ele>1618.0</ele>
        <time>2020-05-21T08:38:02Z</time>
      </trkpt>
      <trkpt lat="42.726870" lon="0.653204">
        <ele>1619.1</ele>
        <time>2020-05-21T08:38:22Z</time>
      </trkpt>
      <trkpt lat="42.726959" lon="0.653184">
        <ele>1625.1</ele>
        <time>2020-05-21T08:38:47Z</time>
      </trkpt>
      <trkpt lat="42.727063" lon="0.653199">
        <ele>1629.6</ele>
        <time>2020-05-21T08:39:11Z</time>
      </trkpt>
      <trkpt lat="42.727174" lon="0.653200">
        <ele>1633.6</ele>
        <time>2020-05-21T08:39:30Z</time>
      </trkpt>
      <trkpt lat="42.727270" lon="0.653241">
        <ele>1639.5</ele>
        <time>2020-05-21T08:39:56Z</time>
      </trkpt>
      <trkpt lat="42.727302" lon="0.653291">
        <ele>1644.6</ele>
        <time>2020-05-21T08:40:20Z</time>
      </trkpt>
      <trkpt lat="42.727398" lon="0.653334">
        <ele>1651.2</ele>
        <time>2020-05-21T08:40:45Z</time>
      </trkpt>
      <trkpt lat="42.727493" lon="0.653382">
        <ele>1654.6</ele>
        <time>2020-05-21T08:41:02Z</time>
      </trkpt>
      <trkpt lat="42.727517" lon="0.653423">
        <ele>1659.2</ele>
        <time>2020-05-21T08:41:22Z</time>
      </trkpt>
      <trkpt lat="42.727573" lon="0.653490">
        <ele>1664.8</ele>
        <time>2020-05-21T08:41:49Z</time>
      </trkpt>
      <trkpt lat="42.727667" lon="0.653542">
        <ele>1669.3</ele>
        <time>2020-05-21T08:42:10Z</time>
      </trkpt>
      <trkpt lat="42.727743" lon="0.653619">
        <ele>1672.7</ele>
        <time>2020-05-21T08:42:27Z</time>
      </trkpt>
      <trkpt lat="42.727702" lon="0.653645">
        <ele>1678.4</ele>
        <time>2020-05-21T08:42:54Z</time>
      </trkpt>
      <trkpt lat="42.727720" lon="0.653711">
        <ele>1684.3</ele>
        <time>2020-05-21T08:43:21Z</time>
      </trkpt>
      <trkpt lat="42.727806" lon="0.653751">
        <ele>1688.4</ele>
        <time>2020-05-21T08:43:42Z</time>
      </trkpt>
      <trkpt lat="42.727755" lon="0.653820">
        <ele>1692.2</ele>
        <time>2020-05-21T08:44:03Z</time>
      </trkpt>
      <trkpt lat="42.727747" lon="0.653895">
        <ele>1698.7</ele>
        <time>2020-05-21T08:44:35Z</time>
      </trkpt>
      <trkpt lat="42.727856" lon="0.653965">
        <ele>1702.8</ele>
        <time>2020-05-21T08:44:55Z</time>
      </trkpt>
      <trkpt lat="42.727892" lon="0.654034">
        <ele>1703.3</ele>
        <time>2020-05-21T08:45:19Z</time>
      </trkpt>
      <trkpt lat="42.727810" lon="0.654085">
        <ele>1703.7</ele>
        <time>2020-05-21T08:45:41Z</time>
      </trkpt>
      <trkpt lat="42.727892" lon="0.654143">
        <ele>1704.3</ele>
        <time>2020-05-21T08:46:06Z</time>
      </trkpt>
      <trkpt lat="42.727969" lon="0.654249">
        <ele>1704.8</ele>
        <time>2020-05-21T08:46:28Z</time>
      </trkpt>
      <trkpt lat="42.728071" lon="0.654374">
        <ele>1705.4</ele>
        <time>2020-05-21T08:46:48Z</time>
      </trkpt>
      <trkpt lat="42.728157" lon="0.654488">
        <ele>1705.8</ele>
        <time>2020-05-21T08:47:06Z</time>
      </trkpt>
      <trkpt lat="42.728231" lon="0.654529">
        <ele>1706.6</ele>
        <time>2020-05-21T08:47:27Z</time>
      </trkpt>
      <trkpt lat="42.728262" lon="0.654644">
        <ele>1706.9</ele>
        <time>2020-05-21T08:47:47Z</time>
      </trkpt>
      <trkpt lat="42.728327" lon="0.654739">
        <ele>1707.4</ele>
        <time>2020-05-21T08:48:09Z</time>
      </trkpt>
      <trkpt lat="42.728411" lon="0.654701">
        <ele>1707.9</ele>
        <time>2020-05-21T08:48:29Z</time>
      </trkpt>
      <trkpt lat="42.728490" lon="0.654634">
        <ele>1708.6</ele>
        <time>2020-05-21T08:48:47Z</time>
      </trkpt>
      <trkpt lat="42.728546" lon="0.654612">
        <ele>1708.6</ele>
        <time>2020-05-21T08:52:37Z</time>
      </trkpt>
      <trkpt lat="42.728544" lon="0.654625">
        <ele>1708.8</ele>
        <time>2020-05-21T08:54:21Z</time>
      </trkpt>
      <trkpt lat="42.728629" lon="0.654614">
        <ele>1709.5</ele>
        <time>2020-05-21T08:56:19Z</time>
      </trkpt>
      <trkpt lat="42.728726" lon="0.654615">
        <ele>1709.9</ele>
        <time>2020-05-21T08:56:30Z</time>
      </trkpt>
      <trkpt lat="42.728821" lon="0.654621">
        <ele>1710.4</ele>
        <time>2020-05-21T08:56:41Z</time>
      </trkpt>
      <trkpt lat="42.728919" lon="0.654624">
        <ele>1710.6</ele>
        <time>2020-05-21T08:56:52Z</time>
      </trkpt>
      <trkpt lat="42.729015" lon="0.654653">
        <ele>1711.0</ele>
        <time>2020-05-21T08:57:03Z</time>
      </trkpt>
      <trkpt lat="42.729105" lon="0.654696">
        <ele>1711.3</ele>
        <time>2020-05-21T08:57:13Z</time>
      </trkpt>
      <trkpt lat="42.729186" lon="0.654753">
        <ele>1711.7</ele>
        <time>2020-05-21T08:57:23Z</time>
      </trkpt>
      <trkpt lat="42.729269" lon="0.654796">
        <ele>1712.0</ele>
        <time>2020-05-21T08:57:33Z</time>
      </trkpt>
      <trkpt lat="42.729355" lon="0.654837">
        <ele>1712.5</ele>
        <time>2020-05-21T08:57:46Z</time>
      </trkpt>
      <trkpt lat="42.729454" lon="0.654879">
        <ele>1712.9</ele>
        <time>2020-05-21T08:57:58Z</time>
      </trkpt>
      <trkpt lat="42.729506" lon="0.654784">
        <ele>1713.3</ele>
        <time>2020-05-21T08:58:11Z</time>
      </trkpt>
      <trkpt lat="42.729544" lon="0.654661">
        <ele>1713.8</ele>
        <time>2020-05-21T08:58:24Z</time>
      </trkpt>
      <trkpt lat="42.729588" lon="0.654553">
        <ele>1714.6</ele>
        <time>2020-05-21T08:58:37Z</time>
      </trkpt>
      <trkpt lat="42.729621" lon="0.654431">
        <ele>1714.9</ele>
        <time>2020-05-21T08:58:49Z</time>
      </trkpt>
      <trkpt lat="42.729684" lon="0.654324">
        <ele>1715.3</ele>
        <time>2020-05-21T08:59:00Z</time>
      </trkpt>
      <trkpt lat="42.729738" lon="0.654217">
        <ele>1715.6</ele>
        <time>2020-05-21T08:59:11Z</time>
      </trkpt>
      <trkpt lat="42.729789" lon="0.654111">
        <ele>1715.8</ele>
        <time>2020-05-21T08:59:23Z</time>
      </trkpt>
      <trkpt lat="42.729833" lon="0.654000">
        <ele>1715.9</ele>
        <time>2020-05-21T08:59:35Z</time>
      </trkpt>
      <trkpt lat="42.729904" lon="0.653910">
        <ele>1716.1</ele>
        <time>2020-05-21T08:59:47Z</time>
      </trkpt>
      <trkpt lat="42.729988" lon="0.653846">
        <ele>1716.5</ele>
        <time>2020-05-21T08:59:58Z</time>
      </trkpt>
      <trkpt lat="42.730086" lon="0.653836">
        <ele>1716.8</ele>
        <time>2020-05-21T09:00:10Z</time>
      </trkpt>
      <trkpt lat="42.730188" lon="0.653856">
        <ele>1717.2</ele>
        <time>2020-05-21T09:00:21Z</time>
      </trkpt>
      <trkpt lat="42.730266" lon="0.653802">
        <ele>1717.6</ele>
        <time>2020-05-21T09:00:31Z</time>
      </trkpt>
      <trkpt lat="42.730316" lon="0.653689">
        <ele>1717.9</ele>
        <time>2020-05-21T09:00:42Z</time>
      </trkpt>
      <trkpt lat="42.730380" lon="0.653602">
        <ele>1718.1</ele>
        <time>2020-05-21T09:01:14Z</time>
      </trkpt>
      <trkpt lat="42.730473" lon="0.653589">
        <ele>1718.2</ele>
        <time>2020-05-21T09:01:31Z</time>
      </trkpt>
      <trkpt lat="42.730560" lon="0.653630">
        <ele>1718.9</ele>
        <time>2020-05-21T09:01:49Z</time>
      </trkpt>
      <trkpt lat="42.730643" lon="0.653710">
        <ele>1719.1</ele>
        <time>2020-05-21T09:02:05Z</time>
      </trkpt>
      <trkpt lat="42.730728" lon="0.653761">
        <ele>1719.3</ele>
        <time>2020-05-21T09:02:19Z</time>
      </trkpt>
      <trkpt lat="42.730806" lon="0.653832">
        <ele>1719.4</ele>
        <time>2020-05-21T09:02:34Z</time>
      </trkpt>
      <trkpt lat="42.730877" lon="0.653910">
        <ele>1719.6</ele>
        <time>2020-05-21T09:02:51Z</time>
      </trkpt>
      <trkpt lat="42.730952" lon="0.653987">
        <ele>1719.7</ele>
        <time>2020-05-21T09:03:06Z</time>
      </trkpt>
      <trkpt lat="42.731006" lon="0.654083">
        <ele>1719.8</ele>
        <time>2020-05-21T09:03:21Z</time>
      </trkpt>
      <trkpt lat="42.731046" lon="0.654192">
        <ele>1720.2</ele>
        <time>2020-05-21T09:03:36Z</time>
      </trkpt>
      <trkpt lat="42.731063" lon="0.654311">
        <ele>1720.3</ele>
        <time>2020-05-21T09:03:48Z</time>
      </trkpt>
      <trkpt lat="42.731074" lon="0.654439">
        <ele>1720.3</ele>
        <time>2020-05-21T09:04:00Z</time>
      </trkpt>
      <trkpt lat="42.731082" lon="0.654573">
        <ele>1721.2</ele>
        <time>2020-05-21T09:04:12Z</time>
      </trkpt>
      <trkpt lat="42.731121" lon="0.654679">
        <ele>1721.3</ele>
        <time>2020-05-21T09:04:26Z</time>
      </trkpt>
      <trkpt lat="42.731119" lon="0.654795">
        <ele>1721.8</ele>
        <time>2020-05-21T09:04:57Z</time>
      </trkpt>
      <trkpt lat="42.731136" lon="0.654923">
        <ele>1721.9</ele>
        <time>2020-05-21T09:05:12Z</time>
      </trkpt>
      <trkpt lat="42.731140" lon="0.655050">
        <ele>1722.0</ele>
        <time>2020-05-21T09:05:25Z</time>
      </trkpt>
      <trkpt lat="42.731119" lon="0.655169">
        <ele>1722.1</ele>
        <time>2020-05-21T09:05:49Z</time>
      </trkpt>
      <trkpt lat="42.731125" lon="0.655309">
        <ele>1722.3</ele>
        <time>2020-05-21T09:06:10Z</time>
      </trkpt>
      <trkpt lat="42.731143" lon="0.655426">
        <ele>1724.3</ele>
        <time>2020-05-21T09:06:28Z</time>
      </trkpt>
      <trkpt lat="42.731146" lon="0.655557">
        <ele>1726.2</ele>
        <time>2020-05-21T09:06:42Z</time>
      </trkpt>
      <trkpt lat="42.731121" lon="0.655688">
        <ele>1728.3</ele>
        <time>2020-05-21T09:06:57Z</time>
      </trkpt>
      <trkpt lat="42.731098" lon="0.655810">
        <ele>1730.4</ele>
        <time>2020-05-21T09:07:11Z</time>
      </trkpt>
      <trkpt lat="42.731095" lon="0.655931">
        <ele>1732.3</ele>
        <time>2020-05-21T09:07:25Z</time>
      </trkpt>
      <trkpt lat="42.731091" lon="0.656017">
        <ele>1734.0</ele>
        <time>2020-05-21T09:08:02Z</time>
      </trkpt>
      <trkpt lat="42.731047" lon="0.656130">
        <ele>1735.2</ele>
        <time>2020-05-21T09:08:15Z</time>
      </trkpt>
      <trkpt lat="42.731007" lon="0.656251">
        <ele>1735.5</ele>
        <time>2020-05-21T09:08:27Z</time>
      </trkpt>
      <trkpt lat="42.730961" lon="0.656361">
        <ele>1737.5</ele>
        <time>2020-05-21T09:08:39Z</time>
      </trkpt>
      <trkpt lat="42.730889" lon="0.656451">
        <ele>1737.8</ele>
        <time>2020-05-21T09:08:50Z</time>
      </trkpt>
      <trkpt lat="42.730799" lon="0.656504">
        <ele>1738.9</ele>
        <time>2020-05-21T09:09:00Z</time>
      </trkpt>
      <trkpt lat="42.730705" lon="0.656535">
        <ele>1740.0</ele>
        <time>2020-05-21T09:09:11Z</time>
      </trkpt>
      <trkpt lat="42.730614" lon="0.656580">
        <ele>1741.9</ele>
        <time>2020-05-21T09:09:23Z</time>
      </trkpt>
      <trkpt lat="42.730535" lon="0.656651">
        <ele>1742.2</ele>
        <time>2020-05-21T09:09:34Z</time>
      </trkpt>
      <trkpt lat="42.730466" lon="0.656747">
        <ele>1743.3</ele>
        <time>2020-05-21T09:09:45Z</time>
      </trkpt>
      <trkpt lat="42.730422" lon="0.656852">
        <ele>1744.4</ele>
        <time>2020-05-21T09:09:55Z</time>
      </trkpt>
      <trkpt lat="42.730393" lon="0.656973">
        <ele>1744.6</ele>
        <time>2020-05-21T09:10:06Z</time>
      </trkpt>
      <trkpt lat="42.730386" lon="0.657100">
        <ele>1744.8</ele>
        <time>2020-05-21T09:10:16Z</time>
      </trkpt>
      <trkpt lat="42.730385" lon="0.657225">
        <ele>1745.8</ele>
        <time>2020-05-21T09:10:26Z</time>
      </trkpt>
      <trkpt lat="42.730387" lon="0.657356">
        <ele>1746.9</ele>
        <time>2020-05-21T09:10:36Z</time>
      </trkpt>
      <trkpt lat="42.730360" lon="0.657479">
        <ele>1748.1</ele>
        <time>2020-05-21T09:10:47Z</time>
      </trkpt>
      <trkpt lat="42.730294" lon="0.657574">
        <ele>1749.1</ele>
        <time>2020-05-21T09:10:58Z</time>
      </trkpt>
      <trkpt lat="42.730197" lon="0.657621">
        <ele>1750.2</ele>
        <time>2020-05-21T09:11:09Z</time>
      </trkpt>
      <trkpt lat="42.730100" lon="0.657670">
        <ele>1751.2</ele>
        <time>2020-05-21T09:11:20Z</time>
      </trkpt>
      <trkpt lat="42.730017" lon="0.657725">
        <ele>1752.2</ele>
        <time>2020-05-21T09:11:30Z</time>
      </trkpt>
      <trkpt lat="42.729934" lon="0.657798">
        <ele>1753.2</ele>
        <time>2020-05-21T09:11:40Z</time>
      </trkpt>
      <trkpt lat="42.729857" lon="0.657878">
        <ele>1753.4</ele>
        <time>2020-05-21T09:11:50Z</time>
      </trkpt>
      <trkpt lat="42.729785" lon="0.657960">
        <ele>1754.5</ele>
        <time>2020-05-21T09:12:00Z</time>
      </trkpt>
      <trkpt lat="42.729727" lon="0.658064">
        <ele>1755.7</ele>
        <time>2020-05-21T09:12:10Z</time>
      </trkpt>
      <trkpt lat="42.729681" lon="0.658181">
        <ele>1755.9</ele>
        <time>2020-05-21T09:12:19Z</time>
      </trkpt>
      <trkpt lat="42.729636" lon="0.658296">
        <ele>1756.1</ele>
        <time>2020-05-21T09:12:28Z</time>
      </trkpt>
      <trkpt lat="42.729572" lon="0.658393">
        <ele>1757.0</ele>
        <time>2020-05-21T09:12:37Z</time>
      </trkpt>
      <trkpt lat="42.729506" lon="0.658490">
        <ele>1757.2</ele>
        <time>2020-05-21T09:12:46Z</time>
      </trkpt>
      <trkpt lat="42.729439" lon="0.658589">
        <ele>1758.3</ele>
        <time>2020-05-21T09:12:56Z</time>
      </trkpt>
      <trkpt lat="42.729383" lon="0.658685">
        <ele>1759.4</ele>
        <time>2020-05-21T09:13:05Z</time>
      </trkpt>
      <trkpt lat="42.729328" lon="0.658784">
        <ele>1759.6</ele>
        <time>2020-05-21T09:13:14Z</time>
      </trkpt>
      <trkpt lat="42.729271" lon="0.658884">
        <ele>1760.5</ele>
        <time>2020-05-21T09:13:23Z</time>
      </trkpt>
      <trkpt lat="42.729207" lon="0.658976">
        <ele>1760.7</ele>
        <time>2020-05-21T09:13:32Z</time>
      </trkpt>
      <trkpt lat="42.729143" lon="0.659069">
        <ele>1761.7</ele>
        <time>2020-05-21T09:13:41Z</time>
      </trkpt>
      <trkpt lat="42.729076" lon="0.659165">
        <ele>1762.7</ele>
        <time>2020-05-21T09:13:51Z</time>
      </trkpt>
      <trkpt lat="42.729012" lon="0.659252">
        <ele>1762.9</ele>
        <time>2020-05-21T09:14:00Z</time>
      </trkpt>
      <trkpt lat="42.728944" lon="0.659346">
        <ele>1763.9</ele>
        <time>2020-05-21T09:14:09Z</time>
      </trkpt>
      <trkpt lat="42.728876" lon="0.659438">
        <ele>1764.1</ele>
        <time>2020-05-21T09:14:18Z</time>
      </trkpt>
      <trkpt lat="42.728805" lon="0.659535">
        <ele>1765.1</ele>
        <time>2020-05-21T09:14:27Z</time>
      </trkpt>
      <trkpt lat="42.728732" lon="0.659635">
        <ele>1766.2</ele>
        <time>2020-05-21T09:14:36Z</time>
      </trkpt>
      <trkpt lat="42.728659" lon="0.659731">
        <ele>1766.4</ele>
        <time>2020-05-21T09:14:45Z</time>
      </trkpt>
      <trkpt lat="42.728585" lon="0.659818">
        <ele>1767.4</ele>
        <time>2020-05-21T09:14:54Z</time>
      </trkpt>
      <trkpt lat="42.728517" lon="0.659901">
        <ele>1767.6</ele>
        <time>2020-05-21T09:15:02Z</time>
      </trkpt>
      <trkpt lat="42.728448" lon="0.659995">
        <ele>1767.8</ele>
        <time>2020-05-21T09:15:10Z</time>
      </trkpt>
      <trkpt lat="42.728384" lon="0.660095">
        <ele>1767.9</ele>
        <time>2020-05-21T09:15:18Z</time>
      </trkpt>
      <trkpt lat="42.728332" lon="0.660199">
        <ele>1768.1</ele>
        <time>2020-05-21T09:15:26Z</time>
      </trkpt>
      <trkpt lat="42.728281" lon="0.660301">
        <ele>1768.2</ele>
        <time>2020-05-21T09:15:34Z</time>
      </trkpt>
      <trkpt lat="42.728205" lon="0.660387">
        <ele>1769.3</ele>
        <time>2020-05-21T09:15:43Z</time>
      </trkpt>
      <trkpt lat="42.728116" lon="0.660438">
        <ele>1771.0</ele>
        <time>2020-05-21T09:15:52Z</time>
      </trkpt>
      <trkpt lat="42.728031" lon="0.660496">
        <ele>1772.0</ele>
        <time>2020-05-21T09:16:01Z</time>
      </trkpt>
      <trkpt lat="42.727941" lon="0.660565">
        <ele>1773.0</ele>
        <time>2020-05-21T09:16:10Z</time>
      </trkpt>
      <trkpt lat="42.727854" lon="0.660632">
        <ele>1773.9</ele>
        <time>2020-05-21T09:16:19Z</time>
      </trkpt>
      <trkpt lat="42.727769" lon="0.660698">
        <ele>1774.1</ele>
        <time>2020-05-21T09:16:28Z</time>
      </trkpt>
      <trkpt lat="42.727685" lon="0.660763">
        <ele>1775.0</ele>
        <time>2020-05-21T09:16:36Z</time>
      </trkpt>
      <trkpt lat="42.727605" lon="0.660827">
        <ele>1775.2</ele>
        <time>2020-05-21T09:16:44Z</time>
      </trkpt>
      <trkpt lat="42.727527" lon="0.660900">
        <ele>1776.1</ele>
        <time>2020-05-21T09:16:52Z</time>
      </trkpt>
      <trkpt lat="42.727451" lon="0.660967">
        <ele>1776.2</ele>
        <time>2020-05-21T09:17:00Z</time>
      </trkpt>
      <trkpt lat="42.727374" lon="0.661033">
        <ele>1776.4</ele>
        <time>2020-05-21T09:17:08Z</time>
      </trkpt>
      <trkpt lat="42.727298" lon="0.661098">
        <ele>1776.6</ele>
        <time>2020-05-21T09:17:16Z</time>
      </trkpt>
      <trkpt lat="42.727217" lon="0.661175">
        <ele>1777.6</ele>
        <time>2020-05-21T09:17:24Z</time>
      </trkpt>
      <trkpt lat="42.727136" lon="0.661249">
        <ele>1777.8</ele>
        <time>2020-05-21T09:17:32Z</time>
      </trkpt>
      <trkpt lat="42.727052" lon="0.661308">
        <ele>1777.9</ele>
        <time>2020-05-21T09:17:40Z</time>
      </trkpt>
      <trkpt lat="42.726968" lon="0.661372">
        <ele>1778.1</ele>
        <time>2020-05-21T09:17:48Z</time>
      </trkpt>
      <trkpt lat="42.726887" lon="0.661430">
        <ele>1779.0</ele>
        <time>2020-05-21T09:17:56Z</time>
      </trkpt>
      <trkpt lat="42.726802" lon="0.661490">
        <ele>1780.0</ele>
        <time>2020-05-21T09:18:05Z</time>
      </trkpt>
      <trkpt lat="42.726719" lon="0.661545">
        <ele>1780.2</ele>
        <time>2020-05-21T09:18:14Z</time>
      </trkpt>
      <trkpt lat="42.726626" lon="0.661601">
        <ele>1781.1</ele>
        <time>2020-05-21T09:18:23Z</time>
      </trkpt>
      <trkpt lat="42.726542" lon="0.661641">
        <ele>1781.3</ele>
        <time>2020-05-21T09:18:31Z</time>
      </trkpt>
      <trkpt lat="42.726450" lon="0.661682">
        <ele>1782.3</ele>
        <time>2020-05-21T09:18:40Z</time>
      </trkpt>
      <trkpt lat="42.726344" lon="0.661729">
        <ele>1783.2</ele>
        <time>2020-05-21T09:18:49Z</time>
      </trkpt>
      <trkpt lat="42.726255" lon="0.661762">
        <ele>1783.3</ele>
        <time>2020-05-21T09:18:57Z</time>
      </trkpt>
      <trkpt lat="42.726164" lon="0.661792">
        <ele>1783.5</ele>
        <time>2020-05-21T09:19:05Z</time>
      </trkpt>
      <trkpt lat="42.726070" lon="0.661830">
        <ele>1783.6</ele>
        <time>2020-05-21T09:19:13Z</time>
      </trkpt>
      <trkpt lat="42.725976" lon="0.661864">
        <ele>1784.5</ele>
        <time>2020-05-21T09:19:21Z</time>
      </trkpt>
      <trkpt lat="42.725882" lon="0.661900">
        <ele>1784.7</ele>
        <time>2020-05-21T09:19:29Z</time>
      </trkpt>
      <trkpt lat="42.725796" lon="0.661933">
        <ele>1785.7</ele>
        <time>2020-05-21T09:19:37Z</time>
      </trkpt>
      <trkpt lat="42.725707" lon="0.661973">
        <ele>1785.9</ele>
        <time>2020-05-21T09:19:45Z</time>
      </trkpt>
      <trkpt lat="42.725620" lon="0.662023">
        <ele>1786.8</ele>
        <time>2020-05-21T09:19:53Z</time>
      </trkpt>
      <trkpt lat="42.725536" lon="0.662091">
        <ele>1786.9</ele>
        <time>2020-05-21T09:20:02Z</time>
      </trkpt>
      <trkpt lat="42.725460" lon="0.662173">
        <ele>1787.1</ele>
        <time>2020-05-21T09:20:12Z</time>
      </trkpt>
      <trkpt lat="42.725391" lon="0.662262">
        <ele>1787.3</ele>
        <time>2020-05-21T09:20:20Z</time>
      </trkpt>
      <trkpt lat="42.725326" lon="0.662357">
        <ele>1788.2</ele>
        <time>2020-05-21T09:20:28Z</time>
      </trkpt>
      <trkpt lat="42.725260" lon="0.662458">
        <ele>1788.4</ele>
        <time>2020-05-21T09:20:36Z</time>
      </trkpt>
      <trkpt lat="42.725199" lon="0.662555">
        <ele>1788.5</ele>
        <time>2020-05-21T09:20:43Z</time>
      </trkpt>
      <trkpt lat="42.725139" lon="0.662652">
        <ele>1788.6</ele>
        <time>2020-05-21T09:20:50Z</time>
      </trkpt>
      <trkpt lat="42.725081" lon="0.662747">
        <ele>1788.7</ele>
        <time>2020-05-21T09:20:57Z</time>
      </trkpt>
      <trkpt lat="42.725013" lon="0.662837">
        <ele>1788.8</ele>
        <time>2020-05-21T09:21:04Z</time>
      </trkpt>
      <trkpt lat="42.724937" lon="0.662927">
        <ele>1789.0</ele>
        <time>2020-05-21T09:21:12Z</time>
      </trkpt>
      <trkpt lat="42.724861" lon="0.663016">
        <ele>1789.2</ele>
        <time>2020-05-21T09:21:20Z</time>
      </trkpt>
      <trkpt lat="42.724790" lon="0.663103">
        <ele>1789.3</ele>
        <time>2020-05-21T09:21:28Z</time>
      </trkpt>
      <trkpt lat="42.724718" lon="0.663195">
        <ele>1789.4</ele>
        <time>2020-05-21T09:21:36Z</time>
      </trkpt>
      <trkpt lat="42.724642" lon="0.663279">
        <ele>1789.6</ele>
        <time>2020-05-21T09:21:44Z</time>
      </trkpt>
      <trkpt lat="42.724559" lon="0.663341">
        <ele>1789.7</ele>
        <time>2020-05-21T09:21:52Z</time>
      </trkpt>
      <trkpt lat="42.724475" lon="0.663401">
        <ele>1789.9</ele>
        <time>2020-05-21T09:22:00Z</time>
      </trkpt>
      <trkpt lat="42.724389" lon="0.663474">
        <ele>1791.1</ele>
        <time>2020-05-21T09:22:08Z</time>
      </trkpt>
      <trkpt lat="42.724299" lon="0.663543">
        <ele>1791.2</ele>
        <time>2020-05-21T09:22:16Z</time>
      </trkpt>
      <trkpt lat="42.724223" lon="0.663617">
        <ele>1791.3</ele>
        <time>2020-05-21T09:22:23Z</time>
      </trkpt>
      <trkpt lat="42.724141" lon="0.663695">
        <ele>1791.4</ele>
        <time>2020-05-21T09:22:31Z</time>
      </trkpt>
      <trkpt lat="42.724064" lon="0.663767">
        <ele>1791.6</ele>
        <time>2020-05-21T09:22:38Z</time>
      </trkpt>
      <trkpt lat="42.723977" lon="0.663842">
        <ele>1791.7</ele>
        <time>2020-05-21T09:22:46Z</time>
      </trkpt>
      <trkpt lat="42.723897" lon="0.663912">
        <ele>1791.8</ele>
        <time>2020-05-21T09:22:53Z</time>
      </trkpt>
      <trkpt lat="42.723812" lon="0.663960">
        <ele>1792.0</ele>
        <time>2020-05-21T09:23:00Z</time>
      </trkpt>
      <trkpt lat="42.723717" lon="0.664003">
        <ele>1792.1</ele>
        <time>2020-05-21T09:23:08Z</time>
      </trkpt>
      <trkpt lat="42.723630" lon="0.664046">
        <ele>1791.7</ele>
        <time>2020-05-21T09:23:16Z</time>
      </trkpt>
      <trkpt lat="42.723547" lon="0.664090">
        <ele>1792.8</ele>
        <time>2020-05-21T09:23:24Z</time>
      </trkpt>
      <trkpt lat="42.723459" lon="0.664134">
        <ele>1792.9</ele>
        <time>2020-05-21T09:23:31Z</time>
      </trkpt>
      <trkpt lat="42.723373" lon="0.664187">
        <ele>1793.1</ele>
        <time>2020-05-21T09:23:38Z</time>
      </trkpt>
      <trkpt lat="42.723288" lon="0.664236">
        <ele>1793.2</ele>
        <time>2020-05-21T09:23:45Z</time>
      </trkpt>
      <trkpt lat="42.723206" lon="0.664295">
        <ele>1793.5</ele>
        <time>2020-05-21T09:24:01Z</time>
      </trkpt>
      <trkpt lat="42.723129" lon="0.664366">
        <ele>1793.6</ele>
        <time>2020-05-21T09:24:10Z</time>
      </trkpt>
      <trkpt lat="42.723052" lon="0.664447">
        <ele>1793.8</ele>
        <time>2020-05-21T09:24:19Z</time>
      </trkpt>
      <trkpt lat="42.722970" lon="0.664516">
        <ele>1793.9</ele>
        <time>2020-05-21T09:24:28Z</time>
      </trkpt>
      <trkpt lat="42.722896" lon="0.664596">
        <ele>1794.1</ele>
        <time>2020-05-21T09:24:37Z</time>
      </trkpt>
      <trkpt lat="42.722815" lon="0.664564">
        <ele>1794.3</ele>
        <time>2020-05-21T09:24:49Z</time>
      </trkpt>
      <trkpt lat="42.722777" lon="0.664569">
        <ele>1798.1</ele>
        <time>2020-05-21T09:28:03Z</time>
      </trkpt>
      <trkpt lat="42.722716" lon="0.664633">
        <ele>1799.3</ele>
        <time>2020-05-21T09:28:36Z</time>
      </trkpt>
      <trkpt lat="42.722627" lon="0.664679">
        <ele>1800.4</ele>
        <time>2020-05-21T09:28:50Z</time>
      </trkpt>
      <trkpt lat="42.722558" lon="0.664750">
        <ele>1801.3</ele>
        <time>2020-05-21T09:29:10Z</time>
      </trkpt>
      <trkpt lat="42.722489" lon="0.664837">
        <ele>1802.1</ele>
        <time>2020-05-21T09:29:23Z</time>
      </trkpt>
      <trkpt lat="42.722455" lon="0.664950">
        <ele>1802.9</ele>
        <time>2020-05-21T09:29:39Z</time>
      </trkpt>
      <trkpt lat="42.722415" lon="0.665067">
        <ele>1803.8</ele>
        <time>2020-05-21T09:29:55Z</time>
      </trkpt>
      <trkpt lat="42.722385" lon="0.665186">
        <ele>1803.8</ele>
        <time>2020-05-21T09:30:09Z</time>
      </trkpt>
      <trkpt lat="42.722346" lon="0.665304">
        <ele>1804.1</ele>
        <time>2020-05-21T09:30:22Z</time>
      </trkpt>
      <trkpt lat="42.722331" lon="0.665419">
        <ele>1804.2</ele>
        <time>2020-05-21T09:30:41Z</time>
      </trkpt>
      <trkpt lat="42.722302" lon="0.665544">
        <ele>1804.4</ele>
        <time>2020-05-21T09:30:52Z</time>
      </trkpt>
      <trkpt lat="42.722261" lon="0.665660">
        <ele>1805.3</ele>
        <time>2020-05-21T09:31:04Z</time>
      </trkpt>
      <trkpt lat="42.722239" lon="0.665783">
        <ele>1805.4</ele>
        <time>2020-05-21T09:31:18Z</time>
      </trkpt>
      <trkpt lat="42.722218" lon="0.665911">
        <ele>1806.1</ele>
        <time>2020-05-21T09:31:34Z</time>
      </trkpt>
      <trkpt lat="42.722174" lon="0.666026">
        <ele>1806.1</ele>
        <time>2020-05-21T09:31:49Z</time>
      </trkpt>
      <trkpt lat="42.722153" lon="0.666154">
        <ele>1807.0</ele>
        <time>2020-05-21T09:32:01Z</time>
      </trkpt>
      <trkpt lat="42.722140" lon="0.666286">
        <ele>1807.7</ele>
        <time>2020-05-21T09:32:13Z</time>
      </trkpt>
      <trkpt lat="42.722134" lon="0.666414">
        <ele>1807.7</ele>
        <time>2020-05-21T09:32:25Z</time>
      </trkpt>
      <trkpt lat="42.722141" lon="0.666540">
        <ele>1808.5</ele>
        <time>2020-05-21T09:32:37Z</time>
      </trkpt>
      <trkpt lat="42.722142" lon="0.666670">
        <ele>1809.4</ele>
        <time>2020-05-21T09:32:50Z</time>
      </trkpt>
      <trkpt lat="42.722140" lon="0.666799">
        <ele>1810.3</ele>
        <time>2020-05-21T09:33:03Z</time>
      </trkpt>
      <trkpt lat="42.722145" lon="0.666928">
        <ele>1811.1</ele>
        <time>2020-05-21T09:33:16Z</time>
      </trkpt>
      <trkpt lat="42.722164" lon="0.667052">
        <ele>1811.1</ele>
        <time>2020-05-21T09:33:30Z</time>
      </trkpt>
      <trkpt lat="42.722170" lon="0.667176">
        <ele>1811.2</ele>
        <time>2020-05-21T09:33:43Z</time>
      </trkpt>
      <trkpt lat="42.722175" lon="0.667307">
        <ele>1811.3</ele>
        <time>2020-05-21T09:33:58Z</time>
      </trkpt>
      <trkpt lat="42.722190" lon="0.667433">
        <ele>1811.6</ele>
        <time>2020-05-21T09:34:14Z</time>
      </trkpt>
      <trkpt lat="42.722208" lon="0.667568">
        <ele>1812.4</ele>
        <time>2020-05-21T09:34:27Z</time>
      </trkpt>
      <trkpt lat="42.722228" lon="0.667694">
        <ele>1813.2</ele>
        <time>2020-05-21T09:34:42Z</time>
      </trkpt>
      <trkpt lat="42.722244" lon="0.667817">
        <ele>1813.3</ele>
        <time>2020-05-21T09:34:56Z</time>
      </trkpt>
      <trkpt lat="42.722278" lon="0.667935">
        <ele>1813.4</ele>
        <time>2020-05-21T09:35:11Z</time>
      </trkpt>
      <trkpt lat="42.722305" lon="0.668035">
        <ele>1814.0</ele>
        <time>2020-05-21T09:35:28Z</time>
      </trkpt>
      <trkpt lat="42.722340" lon="0.668156">
        <ele>1814.7</ele>
        <time>2020-05-21T09:35:41Z</time>
      </trkpt>
      <trkpt lat="42.722371" lon="0.668280">
        <ele>1814.6</ele>
        <time>2020-05-21T09:35:59Z</time>
      </trkpt>
      <trkpt lat="42.722417" lon="0.668392">
        <ele>1815.0</ele>
        <time>2020-05-21T09:36:15Z</time>
      </trkpt>
      <trkpt lat="42.722479" lon="0.668502">
        <ele>1815.2</ele>
        <time>2020-05-21T09:36:30Z</time>
      </trkpt>
      <trkpt lat="42.722556" lon="0.668580">
        <ele>1815.7</ele>
        <time>2020-05-21T09:36:44Z</time>
      </trkpt>
      <trkpt lat="42.722647" lon="0.668606">
        <ele>1815.6</ele>
        <time>2020-05-21T09:36:56Z</time>
      </trkpt>
      <trkpt lat="42.722738" lon="0.668663">
        <ele>1816.1</ele>
        <time>2020-05-21T09:37:11Z</time>
      </trkpt>
      <trkpt lat="42.722809" lon="0.668725">
        <ele>1816.2</ele>
        <time>2020-05-21T09:37:25Z</time>
      </trkpt>
      <trkpt lat="42.722844" lon="0.668835">
        <ele>1816.4</ele>
        <time>2020-05-21T09:37:43Z</time>
      </trkpt>
      <trkpt lat="42.722882" lon="0.668875">
        <ele>1816.5</ele>
        <time>2020-05-21T09:41:52Z</time>
      </trkpt>
      <trkpt lat="42.722965" lon="0.668951">
        <ele>1816.7</ele>
        <time>2020-05-21T09:42:04Z</time>
      </trkpt>
      <trkpt lat="42.723035" lon="0.669043">
        <ele>1816.8</ele>
        <time>2020-05-21T09:42:16Z</time>
      </trkpt>
      <trkpt lat="42.723118" lon="0.669089">
        <ele>1817.0</ele>
        <time>2020-05-21T09:42:36Z</time>
      </trkpt>
      <trkpt lat="42.723194" lon="0.669144">
        <ele>1817.1</ele>
        <time>2020-05-21T09:43:16Z</time>
      </trkpt>
      <trkpt lat="42.723283" lon="0.669185">
        <ele>1817.8</ele>
        <time>2020-05-21T09:43:36Z</time>
      </trkpt>
      <trkpt lat="42.723298" lon="0.669278">
        <ele>1818.4</ele>
        <time>2020-05-21T09:43:58Z</time>
      </trkpt>
      <trkpt lat="42.723370" lon="0.669335">
        <ele>1819.0</ele>
        <time>2020-05-21T09:44:16Z</time>
      </trkpt>
      <trkpt lat="42.723431" lon="0.669413">
        <ele>1819.8</ele>
        <time>2020-05-21T09:44:35Z</time>
      </trkpt>
      <trkpt lat="42.723507" lon="0.669469">
        <ele>1820.7</ele>
        <time>2020-05-21T09:44:53Z</time>
      </trkpt>
      <trkpt lat="42.723595" lon="0.669509">
        <ele>1821.2</ele>
        <time>2020-05-21T09:45:08Z</time>
      </trkpt>
      <trkpt lat="42.723667" lon="0.669576">
        <ele>1821.8</ele>
        <time>2020-05-21T09:45:27Z</time>
      </trkpt>
      <trkpt lat="42.723736" lon="0.669652">
        <ele>1821.9</ele>
        <time>2020-05-21T09:45:44Z</time>
      </trkpt>
      <trkpt lat="42.723805" lon="0.669728">
        <ele>1822.2</ele>
        <time>2020-05-21T09:46:05Z</time>
      </trkpt>
      <trkpt lat="42.723857" lon="0.669789">
        <ele>1822.4</ele>
        <time>2020-05-21T09:46:27Z</time>
      </trkpt>
      <trkpt lat="42.723914" lon="0.669873">
        <ele>1824.1</ele>
        <time>2020-05-21T09:46:49Z</time>
      </trkpt>
      <trkpt lat="42.723985" lon="0.669963">
        <ele>1826.1</ele>
        <time>2020-05-21T09:47:08Z</time>
      </trkpt>
      <trkpt lat="42.724065" lon="0.670058">
        <ele>1828.6</ele>
        <time>2020-05-21T09:47:25Z</time>
      </trkpt>
      <trkpt lat="42.724147" lon="0.670101">
        <ele>1831.1</ele>
        <time>2020-05-21T09:47:43Z</time>
      </trkpt>
      <trkpt lat="42.724194" lon="0.670211">
        <ele>1833.7</ele>
        <time>2020-05-21T09:48:42Z</time>
      </trkpt>
      <trkpt lat="42.724244" lon="0.670292">
        <ele>1835.5</ele>
        <time>2020-05-21T09:49:04Z</time>
      </trkpt>
      <trkpt lat="42.724322" lon="0.670346">
        <ele>1838.2</ele>
        <time>2020-05-21T09:49:25Z</time>
      </trkpt>
      <trkpt lat="42.724398" lon="0.670391">
        <ele>1841.3</ele>
        <time>2020-05-21T09:49:42Z</time>
      </trkpt>
      <trkpt lat="42.724453" lon="0.670474">
        <ele>1844.8</ele>
        <time>2020-05-21T09:50:01Z</time>
      </trkpt>
      <trkpt lat="42.724535" lon="0.670534">
        <ele>1847.4</ele>
        <time>2020-05-21T09:50:22Z</time>
      </trkpt>
      <trkpt lat="42.724585" lon="0.670641">
        <ele>1851.1</ele>
        <time>2020-05-21T09:50:42Z</time>
      </trkpt>
      <trkpt lat="42.724656" lon="0.670700">
        <ele>1853.9</ele>
        <time>2020-05-21T09:51:03Z</time>
      </trkpt>
      <trkpt lat="42.724736" lon="0.670733">
        <ele>1856.6</ele>
        <time>2020-05-21T09:51:23Z</time>
      </trkpt>
      <trkpt lat="42.724793" lon="0.670801">
        <ele>1859.7</ele>
        <time>2020-05-21T09:51:45Z</time>
      </trkpt>
      <trkpt lat="42.724874" lon="0.670853">
        <ele>1861.5</ele>
        <time>2020-05-21T09:52:03Z</time>
      </trkpt>
      <trkpt lat="42.724921" lon="0.670943">
        <ele>1864.1</ele>
        <time>2020-05-21T09:52:23Z</time>
      </trkpt>
      <trkpt lat="42.724992" lon="0.670999">
        <ele>1867.1</ele>
        <time>2020-05-21T09:52:44Z</time>
      </trkpt>
      <trkpt lat="42.725053" lon="0.671068">
        <ele>1869.8</ele>
        <time>2020-05-21T09:53:04Z</time>
      </trkpt>
      <trkpt lat="42.725105" lon="0.671149">
        <ele>1872.5</ele>
        <time>2020-05-21T09:53:24Z</time>
      </trkpt>
      <trkpt lat="42.725172" lon="0.671229">
        <ele>1875.0</ele>
        <time>2020-05-21T09:53:44Z</time>
      </trkpt>
      <trkpt lat="42.725248" lon="0.671277">
        <ele>1877.7</ele>
        <time>2020-05-21T09:54:02Z</time>
      </trkpt>
      <trkpt lat="42.725284" lon="0.671378">
        <ele>1879.4</ele>
        <time>2020-05-21T09:54:20Z</time>
      </trkpt>
      <trkpt lat="42.725315" lon="0.671487">
        <ele>1881.2</ele>
        <time>2020-05-21T09:54:36Z</time>
      </trkpt>
      <trkpt lat="42.725365" lon="0.671575">
        <ele>1883.8</ele>
        <time>2020-05-21T09:54:53Z</time>
      </trkpt>
      <trkpt lat="42.725414" lon="0.671669">
        <ele>1886.3</ele>
        <time>2020-05-21T09:55:11Z</time>
      </trkpt>
      <trkpt lat="42.725457" lon="0.671772">
        <ele>1889.1</ele>
        <time>2020-05-21T09:55:27Z</time>
      </trkpt>
      <trkpt lat="42.725468" lon="0.671900">
        <ele>1891.0</ele>
        <time>2020-05-21T09:55:41Z</time>
      </trkpt>
      <trkpt lat="42.725511" lon="0.672022">
        <ele>1892.7</ele>
        <time>2020-05-21T09:55:57Z</time>
      </trkpt>
      <trkpt lat="42.725557" lon="0.672111">
        <ele>1894.4</ele>
        <time>2020-05-21T09:56:13Z</time>
      </trkpt>
      <trkpt lat="42.725609" lon="0.672233">
        <ele>1895.2</ele>
        <time>2020-05-21T09:56:29Z</time>
      </trkpt>
      <trkpt lat="42.725641" lon="0.672340">
        <ele>1897.0</ele>
        <time>2020-05-21T09:56:45Z</time>
      </trkpt>
      <trkpt lat="42.725697" lon="0.672412">
        <ele>1898.8</ele>
        <time>2020-05-21T09:57:00Z</time>
      </trkpt>
      <trkpt lat="42.725755" lon="0.672502">
        <ele>1901.6</ele>
        <time>2020-05-21T09:57:20Z</time>
      </trkpt>
      <trkpt lat="42.725811" lon="0.672590">
        <ele>1904.5</ele>
        <time>2020-05-21T09:57:33Z</time>
      </trkpt>
      <trkpt lat="42.725878" lon="0.672685">
        <ele>1906.2</ele>
        <time>2020-05-21T09:57:49Z</time>
      </trkpt>
      <trkpt lat="42.725938" lon="0.672791">
        <ele>1908.0</ele>
        <time>2020-05-21T09:58:03Z</time>
      </trkpt>
      <trkpt lat="42.725979" lon="0.672905">
        <ele>1909.6</ele>
        <time>2020-05-21T09:58:16Z</time>
      </trkpt>
      <trkpt lat="42.726034" lon="0.673007">
        <ele>1912.2</ele>
        <time>2020-05-21T09:58:30Z</time>
      </trkpt>
      <trkpt lat="42.726079" lon="0.673126">
        <ele>1913.8</ele>
        <time>2020-05-21T09:58:45Z</time>
      </trkpt>
      <trkpt lat="42.726114" lon="0.673255">
        <ele>1915.8</ele>
        <time>2020-05-21T09:58:58Z</time>
      </trkpt>
      <trkpt lat="42.726151" lon="0.673373">
        <ele>1918.5</ele>
        <time>2020-05-21T09:59:12Z</time>
      </trkpt>
      <trkpt lat="42.726179" lon="0.673500">
        <ele>1920.4</ele>
        <time>2020-05-21T09:59:27Z</time>
      </trkpt>
      <trkpt lat="42.726202" lon="0.673610">
        <ele>1921.3</ele>
        <time>2020-05-21T09:59:39Z</time>
      </trkpt>
      <trkpt lat="42.726231" lon="0.673725">
        <ele>1923.9</ele>
        <time>2020-05-21T09:59:55Z</time>
      </trkpt>
      <trkpt lat="42.726239" lon="0.673837">
        <ele>1924.7</ele>
        <time>2020-05-21T10:00:07Z</time>
      </trkpt>
      <trkpt lat="42.726285" lon="0.673931">
        <ele>1926.4</ele>
        <time>2020-05-21T10:00:19Z</time>
      </trkpt>
      <trkpt lat="42.726345" lon="0.674023">
        <ele>1928.4</ele>
        <time>2020-05-21T10:00:33Z</time>
      </trkpt>
      <trkpt lat="42.726404" lon="0.674113">
        <ele>1931.9</ele>
        <time>2020-05-21T10:00:56Z</time>
      </trkpt>
      <trkpt lat="42.726456" lon="0.674210">
        <ele>1934.4</ele>
        <time>2020-05-21T10:01:12Z</time>
      </trkpt>
      <trkpt lat="42.726501" lon="0.674304">
        <ele>1937.8</ele>
        <time>2020-05-21T10:01:28Z</time>
      </trkpt>
      <trkpt lat="42.726538" lon="0.674437">
        <ele>1941.3</ele>
        <time>2020-05-21T10:01:47Z</time>
      </trkpt>
      <trkpt lat="42.726562" lon="0.674561">
        <ele>1943.8</ele>
        <time>2020-05-21T10:02:04Z</time>
      </trkpt>
      <trkpt lat="42.726609" lon="0.674689">
        <ele>1946.5</ele>
        <time>2020-05-21T10:02:24Z</time>
      </trkpt>
      <trkpt lat="42.726659" lon="0.674778">
        <ele>1948.9</ele>
        <time>2020-05-21T10:02:52Z</time>
      </trkpt>
      <trkpt lat="42.726677" lon="0.674893">
        <ele>1951.3</ele>
        <time>2020-05-21T10:03:14Z</time>
      </trkpt>
      <trkpt lat="42.726713" lon="0.675001">
        <ele>1954.1</ele>
        <time>2020-05-21T10:03:46Z</time>
      </trkpt>
      <trkpt lat="42.726766" lon="0.675071">
        <ele>1957.7</ele>
        <time>2020-05-21T10:04:05Z</time>
      </trkpt>
      <trkpt lat="42.726758" lon="0.675189">
        <ele>1960.3</ele>
        <time>2020-05-21T10:04:26Z</time>
      </trkpt>
      <trkpt lat="42.726750" lon="0.675304">
        <ele>1962.7</ele>
        <time>2020-05-21T10:04:44Z</time>
      </trkpt>
      <trkpt lat="42.726721" lon="0.675439">
        <ele>1964.6</ele>
        <time>2020-05-21T10:04:58Z</time>
      </trkpt>
      <trkpt lat="42.726704" lon="0.675558">
        <ele>1968.3</ele>
        <time>2020-05-21T10:05:20Z</time>
      </trkpt>
      <trkpt lat="42.726692" lon="0.675687">
        <ele>1971.0</ele>
        <time>2020-05-21T10:05:39Z</time>
      </trkpt>
      <trkpt lat="42.726694" lon="0.675805">
        <ele>1974.4</ele>
        <time>2020-05-21T10:05:57Z</time>
      </trkpt>
      <trkpt lat="42.726747" lon="0.675856">
        <ele>1977.0</ele>
        <time>2020-05-21T10:06:19Z</time>
      </trkpt>
      <trkpt lat="42.726736" lon="0.675988">
        <ele>1979.7</ele>
        <time>2020-05-21T10:06:39Z</time>
      </trkpt>
      <trkpt lat="42.726753" lon="0.676090">
        <ele>1983.2</ele>
        <time>2020-05-21T10:07:01Z</time>
      </trkpt>
      <trkpt lat="42.726763" lon="0.676199">
        <ele>1987.6</ele>
        <time>2020-05-21T10:07:26Z</time>
      </trkpt>
      <trkpt lat="42.726761" lon="0.676331">
        <ele>1991.1</ele>
        <time>2020-05-21T10:07:47Z</time>
      </trkpt>
      <trkpt lat="42.726732" lon="0.676459">
        <ele>1994.7</ele>
        <time>2020-05-21T10:08:12Z</time>
      </trkpt>
      <trkpt lat="42.726755" lon="0.676569">
        <ele>1997.3</ele>
        <time>2020-05-21T10:08:32Z</time>
      </trkpt>
      <trkpt lat="42.726782" lon="0.676676">
        <ele>2000.1</ele>
        <time>2020-05-21T10:08:48Z</time>
      </trkpt>
      <trkpt lat="42.726815" lon="0.676787">
        <ele>2003.5</ele>
        <time>2020-05-21T10:09:05Z</time>
      </trkpt>
      <trkpt lat="42.726846" lon="0.676882">
        <ele>2006.9</ele>
        <time>2020-05-21T10:09:20Z</time>
      </trkpt>
      <trkpt lat="42.726871" lon="0.676981">
        <ele>2008.5</ele>
        <time>2020-05-21T10:09:35Z</time>
      </trkpt>
      <trkpt lat="42.726913" lon="0.677071">
        <ele>2011.2</ele>
        <time>2020-05-21T10:09:50Z</time>
      </trkpt>
      <trkpt lat="42.726953" lon="0.677184">
        <ele>2013.8</ele>
        <time>2020-05-21T10:10:07Z</time>
      </trkpt>
      <trkpt lat="42.726992" lon="0.677283">
        <ele>2016.4</ele>
        <time>2020-05-21T10:10:21Z</time>
      </trkpt>
      <trkpt lat="42.727048" lon="0.677378">
        <ele>2017.9</ele>
        <time>2020-05-21T10:10:35Z</time>
      </trkpt>
      <trkpt lat="42.727101" lon="0.677474">
        <ele>2019.5</ele>
        <time>2020-05-21T10:10:47Z</time>
      </trkpt>
      <trkpt lat="42.727134" lon="0.677577">
        <ele>2020.4</ele>
        <time>2020-05-21T10:10:58Z</time>
      </trkpt>
      <trkpt lat="42.727176" lon="0.677672">
        <ele>2022.3</ele>
        <time>2020-05-21T10:11:10Z</time>
      </trkpt>
      <trkpt lat="42.727230" lon="0.677761">
        <ele>2022.3</ele>
        <time>2020-05-21T10:11:26Z</time>
      </trkpt>
      <trkpt lat="42.727243" lon="0.677797">
        <ele>2029.1</ele>
        <time>2020-05-21T10:23:46Z</time>
      </trkpt>
      <trkpt lat="42.727147" lon="0.677781">
        <ele>2029.2</ele>
        <time>2020-05-21T10:23:59Z</time>
      </trkpt>
      <trkpt lat="42.727047" lon="0.677793">
        <ele>2030.3</ele>
        <time>2020-05-21T10:24:13Z</time>
      </trkpt>
      <trkpt lat="42.726947" lon="0.677774">
        <ele>2031.3</ele>
        <time>2020-05-21T10:24:26Z</time>
      </trkpt>
      <trkpt lat="42.726853" lon="0.677781">
        <ele>2031.4</ele>
        <time>2020-05-21T10:24:36Z</time>
      </trkpt>
      <trkpt lat="42.726755" lon="0.677778">
        <ele>2032.3</ele>
        <time>2020-05-21T10:24:47Z</time>
      </trkpt>
      <trkpt lat="42.726665" lon="0.677795">
        <ele>2033.5</ele>
        <time>2020-05-21T10:24:59Z</time>
      </trkpt>
      <trkpt lat="42.726574" lon="0.677811">
        <ele>2035.3</ele>
        <time>2020-05-21T10:25:12Z</time>
      </trkpt>
      <trkpt lat="42.726499" lon="0.677854">
        <ele>2038.2</ele>
        <time>2020-05-21T10:25:28Z</time>
      </trkpt>
      <trkpt lat="42.726449" lon="0.677959">
        <ele>2041.8</ele>
        <time>2020-05-21T10:25:47Z</time>
      </trkpt>
      <trkpt lat="42.726382" lon="0.678043">
        <ele>2045.5</ele>
        <time>2020-05-21T10:26:04Z</time>
      </trkpt>
      <trkpt lat="42.726313" lon="0.678128">
        <ele>2048.4</ele>
        <time>2020-05-21T10:26:18Z</time>
      </trkpt>
      <trkpt lat="42.726247" lon="0.678225">
        <ele>2051.0</ele>
        <time>2020-05-21T10:26:35Z</time>
      </trkpt>
      <trkpt lat="42.726176" lon="0.678316">
        <ele>2053.6</ele>
        <time>2020-05-21T10:26:51Z</time>
      </trkpt>
      <trkpt lat="42.726106" lon="0.678406">
        <ele>2056.5</ele>
        <time>2020-05-21T10:27:07Z</time>
      </trkpt>
      <trkpt lat="42.726036" lon="0.678487">
        <ele>2059.0</ele>
        <time>2020-05-21T10:27:21Z</time>
      </trkpt>
      <trkpt lat="42.725965" lon="0.678570">
        <ele>2060.7</ele>
        <time>2020-05-21T10:27:36Z</time>
      </trkpt>
      <trkpt lat="42.725869" lon="0.678610">
        <ele>2062.9</ele>
        <time>2020-05-21T10:27:49Z</time>
      </trkpt>
      <trkpt lat="42.725778" lon="0.678610">
        <ele>2065.5</ele>
        <time>2020-05-21T10:28:04Z</time>
      </trkpt>
      <trkpt lat="42.725692" lon="0.678560">
        <ele>2068.0</ele>
        <time>2020-05-21T10:28:17Z</time>
      </trkpt>
      <trkpt lat="42.725599" lon="0.678551">
        <ele>2070.7</ele>
        <time>2020-05-21T10:28:37Z</time>
      </trkpt>
      <trkpt lat="42.725508" lon="0.678511">
        <ele>2073.6</ele>
        <time>2020-05-21T10:28:56Z</time>
      </trkpt>
      <trkpt lat="42.725419" lon="0.678496">
        <ele>2077.0</ele>
        <time>2020-05-21T10:29:12Z</time>
      </trkpt>
      <trkpt lat="42.725329" lon="0.678495">
        <ele>2080.7</ele>
        <time>2020-05-21T10:29:30Z</time>
      </trkpt>
      <trkpt lat="42.725238" lon="0.678497">
        <ele>2083.2</ele>
        <time>2020-05-21T10:29:48Z</time>
      </trkpt>
      <trkpt lat="42.725144" lon="0.678489">
        <ele>2085.8</ele>
        <time>2020-05-21T10:30:06Z</time>
      </trkpt>
      <trkpt lat="42.725054" lon="0.678498">
        <ele>2088.5</ele>
        <time>2020-05-21T10:30:21Z</time>
      </trkpt>
      <trkpt lat="42.724962" lon="0.678488">
        <ele>2091.3</ele>
        <time>2020-05-21T10:30:36Z</time>
      </trkpt>
      <trkpt lat="42.724876" lon="0.678508">
        <ele>2094.4</ele>
        <time>2020-05-21T10:30:51Z</time>
      </trkpt>
      <trkpt lat="42.724785" lon="0.678528">
        <ele>2098.4</ele>
        <time>2020-05-21T10:31:09Z</time>
      </trkpt>
      <trkpt lat="42.724710" lon="0.678587">
        <ele>2103.4</ele>
        <time>2020-05-21T10:31:33Z</time>
      </trkpt>
      <trkpt lat="42.724630" lon="0.678637">
        <ele>2106.9</ele>
        <time>2020-05-21T10:31:54Z</time>
      </trkpt>
      <trkpt lat="42.724536" lon="0.678645">
        <ele>2111.3</ele>
        <time>2020-05-21T10:32:16Z</time>
      </trkpt>
      <trkpt lat="42.724456" lon="0.678613">
        <ele>2116.7</ele>
        <time>2020-05-21T10:33:29Z</time>
      </trkpt>
      <trkpt lat="42.724371" lon="0.678626">
        <ele>2122.1</ele>
        <time>2020-05-21T10:34:01Z</time>
      </trkpt>
      <trkpt lat="42.724289" lon="0.678689">
        <ele>2127.5</ele>
        <time>2020-05-21T10:34:35Z</time>
      </trkpt>
      <trkpt lat="42.724211" lon="0.678754">
        <ele>2134.6</ele>
        <time>2020-05-21T10:35:47Z</time>
      </trkpt>
      <trkpt lat="42.724109" lon="0.678787">
        <ele>2139.3</ele>
        <time>2020-05-21T10:36:31Z</time>
      </trkpt>
      <trkpt lat="42.724039" lon="0.678859">
        <ele>2145.3</ele>
        <time>2020-05-21T10:37:08Z</time>
      </trkpt>
      <trkpt lat="42.723968" lon="0.678901">
        <ele>2148.8</ele>
        <time>2020-05-21T10:37:42Z</time>
      </trkpt>
      <trkpt lat="42.723912" lon="0.678984">
        <ele>2153.2</ele>
        <time>2020-05-21T10:38:13Z</time>
      </trkpt>
      <trkpt lat="42.723854" lon="0.679102">
        <ele>2160.2</ele>
        <time>2020-05-21T10:38:49Z</time>
      </trkpt>
      <trkpt lat="42.723826" lon="0.679219">
        <ele>2164.4</ele>
        <time>2020-05-21T10:39:16Z</time>
      </trkpt>
      <trkpt lat="42.723758" lon="0.679294">
        <ele>2170.1</ele>
        <time>2020-05-21T10:39:46Z</time>
      </trkpt>
      <trkpt lat="42.723683" lon="0.679357">
        <ele>2174.5</ele>
        <time>2020-05-21T10:40:11Z</time>
      </trkpt>
      <trkpt lat="42.723610" lon="0.679423">
        <ele>2178.8</ele>
        <time>2020-05-21T10:40:38Z</time>
      </trkpt>
      <trkpt lat="42.723544" lon="0.679497">
        <ele>2183.2</ele>
        <time>2020-05-21T10:41:02Z</time>
      </trkpt>
      <trkpt lat="42.723483" lon="0.679582">
        <ele>2186.6</ele>
        <time>2020-05-21T10:41:24Z</time>
      </trkpt>
      <trkpt lat="42.723447" lon="0.679679">
        <ele>2191.1</ele>
        <time>2020-05-21T10:41:47Z</time>
      </trkpt>
      <trkpt lat="42.723409" lon="0.679751">
        <ele>2192.9</ele>
        <time>2020-05-21T10:42:19Z</time>
      </trkpt>
      <trkpt lat="42.723354" lon="0.679816">
        <ele>2195.7</ele>
        <time>2020-05-21T10:43:20Z</time>
      </trkpt>
      <trkpt lat="42.723324" lon="0.679905">
        <ele>2200.1</ele>
        <time>2020-05-21T10:43:45Z</time>
      </trkpt>
      <trkpt lat="42.723263" lon="0.679981">
        <ele>2205.3</ele>
        <time>2020-05-21T10:44:10Z</time>
      </trkpt>
      <trkpt lat="42.723251" lon="0.680059">
        <ele>2210.3</ele>
        <time>2020-05-21T10:52:52Z</time>
      </trkpt>
      <trkpt lat="42.723266" lon="0.680186">
        <ele>2210.3</ele>
        <time>2020-05-21T10:53:06Z</time>
      </trkpt>
      <trkpt lat="42.723251" lon="0.680316">
        <ele>2210.4</ele>
        <time>2020-05-21T10:53:19Z</time>
      </trkpt>
      <trkpt lat="42.723267" lon="0.680433">
        <ele>2207.3</ele>
        <time>2020-05-21T10:53:30Z</time>
      </trkpt>
      <trkpt lat="42.723253" lon="0.680561">
        <ele>2204.6</ele>
        <time>2020-05-21T10:53:41Z</time>
      </trkpt>
      <trkpt lat="42.723209" lon="0.680672">
        <ele>2199.9</ele>
        <time>2020-05-21T10:53:54Z</time>
      </trkpt>
      <trkpt lat="42.723201" lon="0.680792">
        <ele>2197.3</ele>
        <time>2020-05-21T10:54:06Z</time>
      </trkpt>
      <trkpt lat="42.723214" lon="0.680915">
        <ele>2195.7</ele>
        <time>2020-05-21T10:54:16Z</time>
      </trkpt>
      <trkpt lat="42.723232" lon="0.681046">
        <ele>2194.9</ele>
        <time>2020-05-21T10:54:25Z</time>
      </trkpt>
      <trkpt lat="42.723253" lon="0.681169">
        <ele>2194.9</ele>
        <time>2020-05-21T10:54:33Z</time>
      </trkpt>
      <trkpt lat="42.723273" lon="0.681305">
        <ele>2193.9</ele>
        <time>2020-05-21T10:54:41Z</time>
      </trkpt>
      <trkpt lat="42.723290" lon="0.681442">
        <ele>2193.1</ele>
        <time>2020-05-21T10:54:49Z</time>
      </trkpt>
      <trkpt lat="42.723296" lon="0.681564">
        <ele>2193.2</ele>
        <time>2020-05-21T10:54:56Z</time>
      </trkpt>
      <trkpt lat="42.723311" lon="0.681700">
        <ele>2193.2</ele>
        <time>2020-05-21T10:55:04Z</time>
      </trkpt>
      <trkpt lat="42.723305" lon="0.681828">
        <ele>2193.2</ele>
        <time>2020-05-21T10:55:12Z</time>
      </trkpt>
      <trkpt lat="42.723296" lon="0.681953">
        <ele>2193.2</ele>
        <time>2020-05-21T10:55:20Z</time>
      </trkpt>
      <trkpt lat="42.723302" lon="0.682081">
        <ele>2193.3</ele>
        <time>2020-05-21T10:55:28Z</time>
      </trkpt>
      <trkpt lat="42.723301" lon="0.682211">
        <ele>2193.3</ele>
        <time>2020-05-21T10:55:36Z</time>
      </trkpt>
      <trkpt lat="42.723281" lon="0.682345">
        <ele>2193.3</ele>
        <time>2020-05-21T10:55:44Z</time>
      </trkpt>
      <trkpt lat="42.723278" lon="0.682482">
        <ele>2193.3</ele>
        <time>2020-05-21T10:55:52Z</time>
      </trkpt>
      <trkpt lat="42.723266" lon="0.682606">
        <ele>2191.5</ele>
        <time>2020-05-21T10:55:59Z</time>
      </trkpt>
      <trkpt lat="42.723255" lon="0.682742">
        <ele>2191.7</ele>
        <time>2020-05-21T10:56:07Z</time>
      </trkpt>
      <trkpt lat="42.723249" lon="0.682873">
        <ele>2189.7</ele>
        <time>2020-05-21T10:56:15Z</time>
      </trkpt>
      <trkpt lat="42.723254" lon="0.683002">
        <ele>2187.9</ele>
        <time>2020-05-21T10:56:23Z</time>
      </trkpt>
      <trkpt lat="42.723252" lon="0.683133">
        <ele>2186.0</ele>
        <time>2020-05-21T10:56:31Z</time>
      </trkpt>
      <trkpt lat="42.723258" lon="0.683269">
        <ele>2184.3</ele>
        <time>2020-05-21T10:56:39Z</time>
      </trkpt>
      <trkpt lat="42.723242" lon="0.683401">
        <ele>2183.5</ele>
        <time>2020-05-21T10:56:47Z</time>
      </trkpt>
      <trkpt lat="42.723241" lon="0.683522">
        <ele>2181.9</ele>
        <time>2020-05-21T10:56:54Z</time>
      </trkpt>
      <trkpt lat="42.723261" lon="0.683649">
        <ele>2180.4</ele>
        <time>2020-05-21T10:57:02Z</time>
      </trkpt>
      <trkpt lat="42.723260" lon="0.683778">
        <ele>2179.5</ele>
        <time>2020-05-21T10:57:10Z</time>
      </trkpt>
      <trkpt lat="42.723245" lon="0.683899">
        <ele>2177.8</ele>
        <time>2020-05-21T10:57:17Z</time>
      </trkpt>
      <trkpt lat="42.723233" lon="0.684028">
        <ele>2176.7</ele>
        <time>2020-05-21T10:57:24Z</time>
      </trkpt>
      <trkpt lat="42.723217" lon="0.684149">
        <ele>2175.9</ele>
        <time>2020-05-21T10:57:31Z</time>
      </trkpt>
      <trkpt lat="42.723226" lon="0.684282">
        <ele>2174.6</ele>
        <time>2020-05-21T10:57:39Z</time>
      </trkpt>
      <trkpt lat="42.723202" lon="0.684408">
        <ele>2173.8</ele>
        <time>2020-05-21T10:57:49Z</time>
      </trkpt>
      <trkpt lat="42.723170" lon="0.684541">
        <ele>2176.3</ele>
        <time>2020-05-21T10:57:59Z</time>
      </trkpt>
      <trkpt lat="42.723163" lon="0.684669">
        <ele>2176.2</ele>
        <time>2020-05-21T10:58:07Z</time>
      </trkpt>
      <trkpt lat="42.723142" lon="0.684801">
        <ele>2176.3</ele>
        <time>2020-05-21T10:58:15Z</time>
      </trkpt>
      <trkpt lat="42.723113" lon="0.684924">
        <ele>2177.3</ele>
        <time>2020-05-21T10:58:24Z</time>
      </trkpt>
      <trkpt lat="42.723070" lon="0.685030">
        <ele>2178.2</ele>
        <time>2020-05-21T10:58:33Z</time>
      </trkpt>
      <trkpt lat="42.723044" lon="0.685155">
        <ele>2179.8</ele>
        <time>2020-05-21T10:58:43Z</time>
      </trkpt>
      <trkpt lat="42.723044" lon="0.685287">
        <ele>2181.4</ele>
        <time>2020-05-21T10:58:54Z</time>
      </trkpt>
      <trkpt lat="42.723028" lon="0.685403">
        <ele>2182.2</ele>
        <time>2020-05-21T10:59:05Z</time>
      </trkpt>
      <trkpt lat="42.722996" lon="0.685522">
        <ele>2183.0</ele>
        <time>2020-05-21T10:59:16Z</time>
      </trkpt>
      <trkpt lat="42.722984" lon="0.685643">
        <ele>2182.9</ele>
        <time>2020-05-21T10:59:27Z</time>
      </trkpt>
      <trkpt lat="42.722956" lon="0.685754">
        <ele>2179.7</ele>
        <time>2020-05-21T10:59:38Z</time>
      </trkpt>
      <trkpt lat="42.722959" lon="0.685860">
        <ele>2177.8</ele>
        <time>2020-05-21T10:59:48Z</time>
      </trkpt>
      <trkpt lat="42.722927" lon="0.685982">
        <ele>2175.9</ele>
        <time>2020-05-21T10:59:57Z</time>
      </trkpt>
      <trkpt lat="42.722889" lon="0.686106">
        <ele>2176.0</ele>
        <time>2020-05-21T11:00:06Z</time>
      </trkpt>
      <trkpt lat="42.722855" lon="0.686226">
        <ele>2176.1</ele>
        <time>2020-05-21T11:00:16Z</time>
      </trkpt>
      <trkpt lat="42.722821" lon="0.686346">
        <ele>2176.1</ele>
        <time>2020-05-21T11:00:25Z</time>
      </trkpt>
      <trkpt lat="42.722791" lon="0.686465">
        <ele>2176.2</ele>
        <time>2020-05-21T11:00:35Z</time>
      </trkpt>
      <trkpt lat="42.722758" lon="0.686577">
        <ele>2178.5</ele>
        <time>2020-05-21T11:00:46Z</time>
      </trkpt>
      <trkpt lat="42.722720" lon="0.686691">
        <ele>2179.3</ele>
        <time>2020-05-21T11:00:56Z</time>
      </trkpt>
      <trkpt lat="42.722684" lon="0.686807">
        <ele>2181.0</ele>
        <time>2020-05-21T11:01:06Z</time>
      </trkpt>
      <trkpt lat="42.722638" lon="0.686919">
        <ele>2183.9</ele>
        <time>2020-05-21T11:01:17Z</time>
      </trkpt>
      <trkpt lat="42.722570" lon="0.687011">
        <ele>2185.7</ele>
        <time>2020-05-21T11:01:31Z</time>
      </trkpt>
      <trkpt lat="42.722513" lon="0.687108">
        <ele>2190.1</ele>
        <time>2020-05-21T11:01:52Z</time>
      </trkpt>
      <trkpt lat="42.722457" lon="0.687195">
        <ele>2193.7</ele>
        <time>2020-05-21T11:02:15Z</time>
      </trkpt>
      <trkpt lat="42.722396" lon="0.687277">
        <ele>2198.1</ele>
        <time>2020-05-21T11:02:38Z</time>
      </trkpt>
      <trkpt lat="42.722339" lon="0.687372">
        <ele>2201.5</ele>
        <time>2020-05-21T11:03:01Z</time>
      </trkpt>
      <trkpt lat="42.722291" lon="0.687468">
        <ele>2205.7</ele>
        <time>2020-05-21T11:03:23Z</time>
      </trkpt>
      <trkpt lat="42.722257" lon="0.687556">
        <ele>2209.5</ele>
        <time>2020-05-21T11:03:46Z</time>
      </trkpt>
      <trkpt lat="42.722207" lon="0.687667">
        <ele>2212.3</ele>
        <time>2020-05-21T11:04:07Z</time>
      </trkpt>
      <trkpt lat="42.722148" lon="0.687747">
        <ele>2215.3</ele>
        <time>2020-05-21T11:04:26Z</time>
      </trkpt>
      <trkpt lat="42.722081" lon="0.687825">
        <ele>2218.9</ele>
        <time>2020-05-21T11:04:53Z</time>
      </trkpt>
      <trkpt lat="42.722011" lon="0.687899">
        <ele>2222.7</ele>
        <time>2020-05-21T11:05:21Z</time>
      </trkpt>
      <trkpt lat="42.721974" lon="0.687981">
        <ele>2227.1</ele>
        <time>2020-05-21T11:05:40Z</time>
      </trkpt>
      <trkpt lat="42.721921" lon="0.688070">
        <ele>2230.6</ele>
        <time>2020-05-21T11:06:01Z</time>
      </trkpt>
      <trkpt lat="42.721892" lon="0.688178">
        <ele>2234.8</ele>
        <time>2020-05-21T11:06:24Z</time>
      </trkpt>
      <trkpt lat="42.721843" lon="0.688276">
        <ele>2238.6</ele>
        <time>2020-05-21T11:06:47Z</time>
      </trkpt>
      <trkpt lat="42.721796" lon="0.688375">
        <ele>2240.4</ele>
        <time>2020-05-21T11:07:02Z</time>
      </trkpt>
      <trkpt lat="42.721773" lon="0.688460">
        <ele>2244.0</ele>
        <time>2020-05-21T11:11:47Z</time>
      </trkpt>
      <trkpt lat="42.721748" lon="0.688466">
        <ele>2244.9</ele>
        <time>2020-05-21T11:14:04Z</time>
      </trkpt>
      <trkpt lat="42.721684" lon="0.688553">
        <ele>2245.0</ele>
        <time>2020-05-21T11:14:17Z</time>
      </trkpt>
      <trkpt lat="42.721604" lon="0.688628">
        <ele>2245.0</ele>
        <time>2020-05-21T11:14:28Z</time>
      </trkpt>
      <trkpt lat="42.721521" lon="0.688681">
        <ele>2246.9</ele>
        <time>2020-05-21T11:14:39Z</time>
      </trkpt>
      <trkpt lat="42.721442" lon="0.688746">
        <ele>2246.9</ele>
        <time>2020-05-21T11:14:48Z</time>
      </trkpt>
      <trkpt lat="42.721361" lon="0.688797">
        <ele>2246.9</ele>
        <time>2020-05-21T11:14:58Z</time>
      </trkpt>
      <trkpt lat="42.721278" lon="0.688857">
        <ele>2247.0</ele>
        <time>2020-05-21T11:15:09Z</time>
      </trkpt>
      <trkpt lat="42.721212" lon="0.688925">
        <ele>2248.0</ele>
        <time>2020-05-21T11:15:22Z</time>
      </trkpt>
      <trkpt lat="42.721136" lon="0.688981">
        <ele>2248.9</ele>
        <time>2020-05-21T11:15:34Z</time>
      </trkpt>
      <trkpt lat="42.721068" lon="0.689049">
        <ele>2251.8</ele>
        <time>2020-05-21T11:15:48Z</time>
      </trkpt>
      <trkpt lat="42.721004" lon="0.689125">
        <ele>2254.8</ele>
        <time>2020-05-21T11:16:04Z</time>
      </trkpt>
      <trkpt lat="42.720914" lon="0.689180">
        <ele>2257.4</ele>
        <time>2020-05-21T11:16:21Z</time>
      </trkpt>
      <trkpt lat="42.720835" lon="0.689240">
        <ele>2260.2</ele>
        <time>2020-05-21T11:16:35Z</time>
      </trkpt>
      <trkpt lat="42.720749" lon="0.689295">
        <ele>2262.6</ele>
        <time>2020-05-21T11:16:49Z</time>
      </trkpt>
      <trkpt lat="42.720658" lon="0.689328">
        <ele>2264.2</ele>
        <time>2020-05-21T11:17:01Z</time>
      </trkpt>
      <trkpt lat="42.720579" lon="0.689386">
        <ele>2265.8</ele>
        <time>2020-05-21T11:17:11Z</time>
      </trkpt>
      <trkpt lat="42.720495" lon="0.689431">
        <ele>2266.6</ele>
        <time>2020-05-21T11:17:21Z</time>
      </trkpt>
      <trkpt lat="42.720410" lon="0.689475">
        <ele>2267.4</ele>
        <time>2020-05-21T11:17:33Z</time>
      </trkpt>
      <trkpt lat="42.720352" lon="0.689550">
        <ele>2268.2</ele>
        <time>2020-05-21T11:17:52Z</time>
      </trkpt>
      <trkpt lat="42.720307" lon="0.689649">
        <ele>2265.6</ele>
        <time>2020-05-21T11:18:07Z</time>
      </trkpt>
      <trkpt lat="42.720264" lon="0.689739">
        <ele>2262.1</ele>
        <time>2020-05-21T11:18:22Z</time>
      </trkpt>
      <trkpt lat="42.720205" lon="0.689830">
        <ele>2258.3</ele>
        <time>2020-05-21T11:18:37Z</time>
      </trkpt>
      <trkpt lat="42.720151" lon="0.689919">
        <ele>2255.7</ele>
        <time>2020-05-21T11:18:54Z</time>
      </trkpt>
      <trkpt lat="42.720108" lon="0.690015">
        <ele>2253.7</ele>
        <time>2020-05-21T11:19:10Z</time>
      </trkpt>
      <trkpt lat="42.720059" lon="0.690114">
        <ele>2249.6</ele>
        <time>2020-05-21T11:19:39Z</time>
      </trkpt>
      <trkpt lat="42.719994" lon="0.690205">
        <ele>2243.7</ele>
        <time>2020-05-21T11:19:52Z</time>
      </trkpt>
      <trkpt lat="42.719929" lon="0.690296">
        <ele>2238.3</ele>
        <time>2020-05-21T11:20:06Z</time>
      </trkpt>
      <trkpt lat="42.719884" lon="0.690406">
        <ele>2234.0</ele>
        <time>2020-05-21T11:20:19Z</time>
      </trkpt>
      <trkpt lat="42.719850" lon="0.690517">
        <ele>2231.1</ele>
        <time>2020-05-21T11:20:30Z</time>
      </trkpt>
      <trkpt lat="42.719812" lon="0.690621">
        <ele>2227.3</ele>
        <time>2020-05-21T11:20:43Z</time>
      </trkpt>
      <trkpt lat="42.719780" lon="0.690731">
        <ele>2223.4</ele>
        <time>2020-05-21T11:20:55Z</time>
      </trkpt>
      <trkpt lat="42.719764" lon="0.690850">
        <ele>2219.9</ele>
        <time>2020-05-21T11:21:08Z</time>
      </trkpt>
      <trkpt lat="42.719753" lon="0.690971">
        <ele>2217.1</ele>
        <time>2020-05-21T11:21:19Z</time>
      </trkpt>
      <trkpt lat="42.719716" lon="0.691080">
        <ele>2213.8</ele>
        <time>2020-05-21T11:21:32Z</time>
      </trkpt>
      <trkpt lat="42.719688" lon="0.691192">
        <ele>2210.9</ele>
        <time>2020-05-21T11:21:46Z</time>
      </trkpt>
      <trkpt lat="42.719668" lon="0.691289">
        <ele>2207.5</ele>
        <time>2020-05-21T11:22:02Z</time>
      </trkpt>
      <trkpt lat="42.719639" lon="0.691390">
        <ele>2204.0</ele>
        <time>2020-05-21T11:22:19Z</time>
      </trkpt>
      <trkpt lat="42.719613" lon="0.691501">
        <ele>2200.2</ele>
        <time>2020-05-21T11:22:35Z</time>
      </trkpt>
      <trkpt lat="42.719580" lon="0.691617">
        <ele>2198.5</ele>
        <time>2020-05-21T11:22:47Z</time>
      </trkpt>
      <trkpt lat="42.719540" lon="0.691730">
        <ele>2195.8</ele>
        <time>2020-05-21T11:22:59Z</time>
      </trkpt>
      <trkpt lat="42.719486" lon="0.691836">
        <ele>2193.0</ele>
        <time>2020-05-21T11:23:11Z</time>
      </trkpt>
      <trkpt lat="42.719447" lon="0.691942">
        <ele>2190.5</ele>
        <time>2020-05-21T11:23:22Z</time>
      </trkpt>
      <trkpt lat="42.719392" lon="0.692044">
        <ele>2188.7</ele>
        <time>2020-05-21T11:23:33Z</time>
      </trkpt>
      <trkpt lat="42.719341" lon="0.692152">
        <ele>2186.8</ele>
        <time>2020-05-21T11:23:43Z</time>
      </trkpt>
      <trkpt lat="42.719279" lon="0.692257">
        <ele>2186.1</ele>
        <time>2020-05-21T11:23:53Z</time>
      </trkpt>
      <trkpt lat="42.719239" lon="0.692365">
        <ele>2186.1</ele>
        <time>2020-05-21T11:24:02Z</time>
      </trkpt>
      <trkpt lat="42.719208" lon="0.692477">
        <ele>2185.4</ele>
        <time>2020-05-21T11:24:11Z</time>
      </trkpt>
      <trkpt lat="42.719168" lon="0.692584">
        <ele>2185.4</ele>
        <time>2020-05-21T11:24:20Z</time>
      </trkpt>
      <trkpt lat="42.719115" lon="0.692696">
        <ele>2185.4</ele>
        <time>2020-05-21T11:24:30Z</time>
      </trkpt>
      <trkpt lat="42.719082" lon="0.692813">
        <ele>2185.4</ele>
        <time>2020-05-21T11:24:39Z</time>
      </trkpt>
      <trkpt lat="42.719033" lon="0.692927">
        <ele>2185.4</ele>
        <time>2020-05-21T11:24:51Z</time>
      </trkpt>
      <trkpt lat="42.718969" lon="0.693028">
        <ele>2187.7</ele>
        <time>2020-05-21T11:25:01Z</time>
      </trkpt>
      <trkpt lat="42.718904" lon="0.693123">
        <ele>2187.7</ele>
        <time>2020-05-21T11:25:10Z</time>
      </trkpt>
      <trkpt lat="42.718861" lon="0.693234">
        <ele>2188.5</ele>
        <time>2020-05-21T11:25:22Z</time>
      </trkpt>
      <trkpt lat="42.718816" lon="0.693345">
        <ele>2191.4</ele>
        <time>2020-05-21T11:25:40Z</time>
      </trkpt>
      <trkpt lat="42.718798" lon="0.693471">
        <ele>2194.6</ele>
        <time>2020-05-21T11:25:59Z</time>
      </trkpt>
      <trkpt lat="42.718740" lon="0.693564">
        <ele>2198.9</ele>
        <time>2020-05-21T11:26:19Z</time>
      </trkpt>
      <trkpt lat="42.718694" lon="0.693656">
        <ele>2203.0</ele>
        <time>2020-05-21T11:26:37Z</time>
      </trkpt>
      <trkpt lat="42.718667" lon="0.693741">
        <ele>2206.5</ele>
        <time>2020-05-21T11:26:56Z</time>
      </trkpt>
      <trkpt lat="42.718642" lon="0.693883">
        <ele>2212.0</ele>
        <time>2020-05-21T11:27:16Z</time>
      </trkpt>
      <trkpt lat="42.718581" lon="0.693960">
        <ele>2216.4</ele>
        <time>2020-05-21T11:27:40Z</time>
      </trkpt>
      <trkpt lat="42.718510" lon="0.694036">
        <ele>2221.4</ele>
        <time>2020-05-21T11:28:02Z</time>
      </trkpt>
      <trkpt lat="42.718511" lon="0.694141">
        <ele>2226.3</ele>
        <time>2020-05-21T11:28:24Z</time>
      </trkpt>
      <trkpt lat="42.718507" lon="0.694253">
        <ele>2231.1</ele>
        <time>2020-05-21T11:28:44Z</time>
      </trkpt>
      <trkpt lat="42.718458" lon="0.694349">
        <ele>2233.5</ele>
        <time>2020-05-21T11:29:02Z</time>
      </trkpt>
      <trkpt lat="42.718415" lon="0.694464">
        <ele>2236.3</ele>
        <time>2020-05-21T11:29:20Z</time>
      </trkpt>
      <trkpt lat="42.718359" lon="0.694563">
        <ele>2238.8</ele>
        <time>2020-05-21T11:29:34Z</time>
      </trkpt>
      <trkpt lat="42.718304" lon="0.694664">
        <ele>2239.6</ele>
        <time>2020-05-21T11:29:48Z</time>
      </trkpt>
      <trkpt lat="42.718265" lon="0.694773">
        <ele>2241.2</ele>
        <time>2020-05-21T11:30:08Z</time>
      </trkpt>
      <trkpt lat="42.718207" lon="0.694868">
        <ele>2242.1</ele>
        <time>2020-05-21T11:31:04Z</time>
      </trkpt>
      <trkpt lat="42.718138" lon="0.694936">
        <ele>2242.1</ele>
        <time>2020-05-21T11:31:17Z</time>
      </trkpt>
      <trkpt lat="42.718146" lon="0.695045">
        <ele>2238.6</ele>
        <time>2020-05-21T11:32:31Z</time>
      </trkpt>
      <trkpt lat="42.718102" lon="0.695157">
        <ele>2237.2</ele>
        <time>2020-05-21T11:32:43Z</time>
      </trkpt>
      <trkpt lat="42.718059" lon="0.695266">
        <ele>2236.2</ele>
        <time>2020-05-21T11:32:52Z</time>
      </trkpt>
      <trkpt lat="42.718015" lon="0.695375">
        <ele>2236.3</ele>
        <time>2020-05-21T11:33:02Z</time>
      </trkpt>
      <trkpt lat="42.717967" lon="0.695482">
        <ele>2236.4</ele>
        <time>2020-05-21T11:33:14Z</time>
      </trkpt>
      <trkpt lat="42.717937" lon="0.695597">
        <ele>2240.6</ele>
        <time>2020-05-21T11:33:28Z</time>
      </trkpt>
      <trkpt lat="42.717906" lon="0.695720">
        <ele>2243.2</ele>
        <time>2020-05-21T11:33:43Z</time>
      </trkpt>
      <trkpt lat="42.717888" lon="0.695841">
        <ele>2246.9</ele>
        <time>2020-05-21T11:34:01Z</time>
      </trkpt>
      <trkpt lat="42.717869" lon="0.695953">
        <ele>2249.6</ele>
        <time>2020-05-21T11:34:23Z</time>
      </trkpt>
      <trkpt lat="42.717850" lon="0.696070">
        <ele>2253.7</ele>
        <time>2020-05-21T11:34:49Z</time>
      </trkpt>
      <trkpt lat="42.717841" lon="0.696194">
        <ele>2256.6</ele>
        <time>2020-05-21T11:35:07Z</time>
      </trkpt>
      <trkpt lat="42.717857" lon="0.696328">
        <ele>2258.3</ele>
        <time>2020-05-21T11:35:24Z</time>
      </trkpt>
      <trkpt lat="42.717861" lon="0.696440">
        <ele>2259.0</ele>
        <time>2020-05-21T11:35:37Z</time>
      </trkpt>
      <trkpt lat="42.717940" lon="0.696581">
        <ele>2260.0</ele>
        <time>2020-05-21T11:35:55Z</time>
      </trkpt>
      <trkpt lat="42.718010" lon="0.696710">
        <ele>2261.6</ele>
        <time>2020-05-21T11:36:09Z</time>
      </trkpt>
      <trkpt lat="42.718042" lon="0.696780">
        <ele>2261.6</ele>
        <time>2020-05-21T11:36:23Z</time>
      </trkpt>
      <trkpt lat="42.718075" lon="0.696861">
        <ele>2262.4</ele>
        <time>2020-05-21T11:36:40Z</time>
      </trkpt>
      <trkpt lat="42.718058" lon="0.696940">
        <ele>2265.1</ele>
        <time>2020-05-21T11:43:03Z</time>
      </trkpt>
      <trkpt lat="42.718045" lon="0.696865">
        <ele>2265.1</ele>
        <time>2020-05-21T11:44:21Z</time>
      </trkpt>
      <trkpt lat="42.718021" lon="0.696761">
        <ele>2261.9</ele>
        <time>2020-05-21T11:44:35Z</time>
      </trkpt>
      <trkpt lat="42.717974" lon="0.696656">
        <ele>2262.0</ele>
        <time>2020-05-21T11:44:47Z</time>
      </trkpt>
      <trkpt lat="42.717913" lon="0.696565">
        <ele>2262.0</ele>
        <time>2020-05-21T11:45:00Z</time>
      </trkpt>
      <trkpt lat="42.717847" lon="0.696478">
        <ele>2260.4</ele>
        <time>2020-05-21T11:45:12Z</time>
      </trkpt>
      <trkpt lat="42.717772" lon="0.696449">
        <ele>2257.6</ele>
        <time>2020-05-21T11:45:29Z</time>
      </trkpt>
      <trkpt lat="42.717696" lon="0.696390">
        <ele>2256.0</ele>
        <time>2020-05-21T11:45:48Z</time>
      </trkpt>
      <trkpt lat="42.717717" lon="0.696378">
        <ele>2257.9</ele>
        <time>2020-05-21T13:12:46Z</time>
      </trkpt>
      <trkpt lat="42.717645" lon="0.696280">
        <ele>2257.8</ele>
        <time>2020-05-21T13:13:01Z</time>
      </trkpt>
      <trkpt lat="42.717594" lon="0.696163">
        <ele>2257.8</ele>
        <time>2020-05-21T13:13:19Z</time>
      </trkpt>
      <trkpt lat="42.717521" lon="0.696081">
        <ele>2254.6</ele>
        <time>2020-05-21T13:14:32Z</time>
      </trkpt>
      <trkpt lat="42.717458" lon="0.696034">
        <ele>2250.9</ele>
        <time>2020-05-21T13:14:58Z</time>
      </trkpt>
      <trkpt lat="42.717432" lon="0.696028">
        <ele>2248.9</ele>
        <time>2020-05-21T13:16:02Z</time>
      </trkpt>
      <trkpt lat="42.717375" lon="0.695970">
        <ele>2246.1</ele>
        <time>2020-05-21T13:16:15Z</time>
      </trkpt>
      <trkpt lat="42.717341" lon="0.695902">
        <ele>2243.4</ele>
        <time>2020-05-21T13:16:32Z</time>
      </trkpt>
      <trkpt lat="42.717278" lon="0.695869">
        <ele>2239.7</ele>
        <time>2020-05-21T13:16:45Z</time>
      </trkpt>
      <trkpt lat="42.717245" lon="0.695812">
        <ele>2236.3</ele>
        <time>2020-05-21T13:16:58Z</time>
      </trkpt>
      <trkpt lat="42.717173" lon="0.695749">
        <ele>2235.1</ele>
        <time>2020-05-21T13:17:09Z</time>
      </trkpt>
      <trkpt lat="42.717107" lon="0.695663">
        <ele>2233.1</ele>
        <time>2020-05-21T13:17:39Z</time>
      </trkpt>
      <trkpt lat="42.717057" lon="0.695584">
        <ele>2227.9</ele>
        <time>2020-05-21T13:17:53Z</time>
      </trkpt>
      <trkpt lat="42.716990" lon="0.695583">
        <ele>2225.9</ele>
        <time>2020-05-21T13:18:04Z</time>
      </trkpt>
      <trkpt lat="42.716928" lon="0.695499">
        <ele>2220.2</ele>
        <time>2020-05-21T13:18:18Z</time>
      </trkpt>
      <trkpt lat="42.716843" lon="0.695494">
        <ele>2219.3</ele>
        <time>2020-05-21T13:18:29Z</time>
      </trkpt>
      <trkpt lat="42.716750" lon="0.695510">
        <ele>2218.4</ele>
        <time>2020-05-21T13:18:39Z</time>
      </trkpt>
      <trkpt lat="42.716670" lon="0.695498">
        <ele>2214.1</ele>
        <time>2020-05-21T13:18:52Z</time>
      </trkpt>
      <trkpt lat="42.716599" lon="0.695426">
        <ele>2213.1</ele>
        <time>2020-05-21T13:19:03Z</time>
      </trkpt>
      <trkpt lat="42.716533" lon="0.695341">
        <ele>2211.9</ele>
        <time>2020-05-21T13:19:23Z</time>
      </trkpt>
      <trkpt lat="42.716467" lon="0.695275">
        <ele>2207.4</ele>
        <time>2020-05-21T13:19:36Z</time>
      </trkpt>
      <trkpt lat="42.716394" lon="0.695214">
        <ele>2201.6</ele>
        <time>2020-05-21T13:19:50Z</time>
      </trkpt>
      <trkpt lat="42.716344" lon="0.695114">
        <ele>2197.4</ele>
        <time>2020-05-21T13:20:04Z</time>
      </trkpt>
      <trkpt lat="42.716319" lon="0.694993">
        <ele>2192.9</ele>
        <time>2020-05-21T13:20:18Z</time>
      </trkpt>
      <trkpt lat="42.716269" lon="0.694914">
        <ele>2190.1</ele>
        <time>2020-05-21T13:20:31Z</time>
      </trkpt>
      <trkpt lat="42.716180" lon="0.694926">
        <ele>2186.1</ele>
        <time>2020-05-21T13:20:43Z</time>
      </trkpt>
      <trkpt lat="42.716116" lon="0.694841">
        <ele>2179.6</ele>
        <time>2020-05-21T13:20:58Z</time>
      </trkpt>
      <trkpt lat="42.716057" lon="0.694740">
        <ele>2176.6</ele>
        <time>2020-05-21T13:21:10Z</time>
      </trkpt>
      <trkpt lat="42.715969" lon="0.694725">
        <ele>2174.5</ele>
        <time>2020-05-21T13:21:22Z</time>
      </trkpt>
      <trkpt lat="42.715919" lon="0.694624">
        <ele>2170.1</ele>
        <time>2020-05-21T13:21:34Z</time>
      </trkpt>
      <trkpt lat="42.715842" lon="0.694571">
        <ele>2169.1</ele>
        <time>2020-05-21T13:21:45Z</time>
      </trkpt>
      <trkpt lat="42.715771" lon="0.694511">
        <ele>2164.9</ele>
        <time>2020-05-21T13:21:56Z</time>
      </trkpt>
      <trkpt lat="42.715749" lon="0.694400">
        <ele>2160.9</ele>
        <time>2020-05-21T13:22:08Z</time>
      </trkpt>
      <trkpt lat="42.715754" lon="0.694291">
        <ele>2158.2</ele>
        <time>2020-05-21T13:22:21Z</time>
      </trkpt>
      <trkpt lat="42.715708" lon="0.694179">
        <ele>2154.5</ele>
        <time>2020-05-21T13:22:33Z</time>
      </trkpt>
      <trkpt lat="42.715651" lon="0.694072">
        <ele>2152.0</ele>
        <time>2020-05-21T13:22:45Z</time>
      </trkpt>
      <trkpt lat="42.715584" lon="0.693981">
        <ele>2149.2</ele>
        <time>2020-05-21T13:22:57Z</time>
      </trkpt>
      <trkpt lat="42.715549" lon="0.693894">
        <ele>2147.4</ele>
        <time>2020-05-21T13:23:23Z</time>
      </trkpt>
      <trkpt lat="42.715480" lon="0.693801">
        <ele>2145.4</ele>
        <time>2020-05-21T13:23:34Z</time>
      </trkpt>
      <trkpt lat="42.715428" lon="0.693688">
        <ele>2141.5</ele>
        <time>2020-05-21T13:23:45Z</time>
      </trkpt>
      <trkpt lat="42.715377" lon="0.693578">
        <ele>2139.8</ele>
        <time>2020-05-21T13:23:55Z</time>
      </trkpt>
      <trkpt lat="42.715301" lon="0.693501">
        <ele>2138.6</ele>
        <time>2020-05-21T13:24:07Z</time>
      </trkpt>
      <trkpt lat="42.715238" lon="0.693402">
        <ele>2137.6</ele>
        <time>2020-05-21T13:24:18Z</time>
      </trkpt>
      <trkpt lat="42.715168" lon="0.693386">
        <ele>2136.9</ele>
        <time>2020-05-21T13:24:30Z</time>
      </trkpt>
      <trkpt lat="42.715038" lon="0.693235">
        <ele>2137.4</ele>
        <time>2020-05-21T13:25:25Z</time>
      </trkpt>
      <trkpt lat="42.714970" lon="0.693129">
        <ele>2136.6</ele>
        <time>2020-05-21T13:25:37Z</time>
      </trkpt>
      <trkpt lat="42.714881" lon="0.693072">
        <ele>2135.8</ele>
        <time>2020-05-21T13:25:46Z</time>
      </trkpt>
      <trkpt lat="42.714793" lon="0.693003">
        <ele>2134.9</ele>
        <time>2020-05-21T13:25:55Z</time>
      </trkpt>
      <trkpt lat="42.714715" lon="0.692930">
        <ele>2133.1</ele>
        <time>2020-05-21T13:26:03Z</time>
      </trkpt>
      <trkpt lat="42.714631" lon="0.692880">
        <ele>2133.0</ele>
        <time>2020-05-21T13:26:11Z</time>
      </trkpt>
      <trkpt lat="42.714552" lon="0.692804">
        <ele>2132.2</ele>
        <time>2020-05-21T13:26:20Z</time>
      </trkpt>
      <trkpt lat="42.714493" lon="0.692698">
        <ele>2132.2</ele>
        <time>2020-05-21T13:26:28Z</time>
      </trkpt>
      <trkpt lat="42.714429" lon="0.692596">
        <ele>2132.2</ele>
        <time>2020-05-21T13:26:37Z</time>
      </trkpt>
      <trkpt lat="42.714373" lon="0.692497">
        <ele>2132.3</ele>
        <time>2020-05-21T13:26:46Z</time>
      </trkpt>
      <trkpt lat="42.714341" lon="0.692383">
        <ele>2131.4</ele>
        <time>2020-05-21T13:27:23Z</time>
      </trkpt>
      <trkpt lat="42.714277" lon="0.692292">
        <ele>2128.1</ele>
        <time>2020-05-21T13:27:31Z</time>
      </trkpt>
      <trkpt lat="42.714228" lon="0.692183">
        <ele>2125.1</ele>
        <time>2020-05-21T13:27:39Z</time>
      </trkpt>
      <trkpt lat="42.714184" lon="0.692065">
        <ele>2122.5</ele>
        <time>2020-05-21T13:27:47Z</time>
      </trkpt>
      <trkpt lat="42.714151" lon="0.691945">
        <ele>2121.8</ele>
        <time>2020-05-21T13:27:55Z</time>
      </trkpt>
      <trkpt lat="42.714120" lon="0.691820">
        <ele>2121.0</ele>
        <time>2020-05-21T13:28:05Z</time>
      </trkpt>
      <trkpt lat="42.714090" lon="0.691705">
        <ele>2118.1</ele>
        <time>2020-05-21T13:28:15Z</time>
      </trkpt>
      <trkpt lat="42.714031" lon="0.691614">
        <ele>2116.0</ele>
        <time>2020-05-21T13:28:24Z</time>
      </trkpt>
      <trkpt lat="42.713977" lon="0.691512">
        <ele>2113.2</ele>
        <time>2020-05-21T13:28:33Z</time>
      </trkpt>
      <trkpt lat="42.713925" lon="0.691417">
        <ele>2111.4</ele>
        <time>2020-05-21T13:28:43Z</time>
      </trkpt>
      <trkpt lat="42.713903" lon="0.691287">
        <ele>2110.4</ele>
        <time>2020-05-21T13:28:52Z</time>
      </trkpt>
      <trkpt lat="42.713845" lon="0.691193">
        <ele>2109.7</ele>
        <time>2020-05-21T13:29:01Z</time>
      </trkpt>
      <trkpt lat="42.713777" lon="0.691097">
        <ele>2107.2</ele>
        <time>2020-05-21T13:29:11Z</time>
      </trkpt>
      <trkpt lat="42.713718" lon="0.690999">
        <ele>2103.4</ele>
        <time>2020-05-21T13:29:20Z</time>
      </trkpt>
      <trkpt lat="42.713648" lon="0.690902">
        <ele>2101.6</ele>
        <time>2020-05-21T13:29:29Z</time>
      </trkpt>
      <trkpt lat="42.713592" lon="0.690798">
        <ele>2099.5</ele>
        <time>2020-05-21T13:29:39Z</time>
      </trkpt>
      <trkpt lat="42.713546" lon="0.690689">
        <ele>2097.7</ele>
        <time>2020-05-21T13:29:48Z</time>
      </trkpt>
      <trkpt lat="42.713477" lon="0.690601">
        <ele>2094.9</ele>
        <time>2020-05-21T13:29:58Z</time>
      </trkpt>
      <trkpt lat="42.713424" lon="0.690505">
        <ele>2092.0</ele>
        <time>2020-05-21T13:30:40Z</time>
      </trkpt>
      <trkpt lat="42.713354" lon="0.690411">
        <ele>2090.8</ele>
        <time>2020-05-21T13:30:50Z</time>
      </trkpt>
      <trkpt lat="42.713311" lon="0.690302">
        <ele>2088.1</ele>
        <time>2020-05-21T13:31:01Z</time>
      </trkpt>
      <trkpt lat="42.713282" lon="0.690205">
        <ele>2085.4</ele>
        <time>2020-05-21T13:31:12Z</time>
      </trkpt>
      <trkpt lat="42.713261" lon="0.690093">
        <ele>2081.6</ele>
        <time>2020-05-21T13:31:23Z</time>
      </trkpt>
      <trkpt lat="42.713278" lon="0.689972">
        <ele>2077.6</ele>
        <time>2020-05-21T13:31:34Z</time>
      </trkpt>
      <trkpt lat="42.713292" lon="0.689838">
        <ele>2074.0</ele>
        <time>2020-05-21T13:31:45Z</time>
      </trkpt>
      <trkpt lat="42.713324" lon="0.689742">
        <ele>2071.1</ele>
        <time>2020-05-21T13:31:57Z</time>
      </trkpt>
      <trkpt lat="42.713333" lon="0.689619">
        <ele>2067.6</ele>
        <time>2020-05-21T13:32:30Z</time>
      </trkpt>
      <trkpt lat="42.713356" lon="0.689498">
        <ele>2063.8</ele>
        <time>2020-05-21T13:32:42Z</time>
      </trkpt>
      <trkpt lat="42.713394" lon="0.689384">
        <ele>2060.3</ele>
        <time>2020-05-21T13:33:06Z</time>
      </trkpt>
      <trkpt lat="42.713450" lon="0.689301">
        <ele>2057.4</ele>
        <time>2020-05-21T13:33:32Z</time>
      </trkpt>
      <trkpt lat="42.713488" lon="0.688917">
        <ele>2050.0</ele>
        <time>2020-05-21T13:35:25Z</time>
      </trkpt>
      <trkpt lat="42.713475" lon="0.688788">
        <ele>2050.0</ele>
        <time>2020-05-21T13:35:39Z</time>
      </trkpt>
      <trkpt lat="42.713487" lon="0.688667">
        <ele>2049.9</ele>
        <time>2020-05-21T13:35:58Z</time>
      </trkpt>
      <trkpt lat="42.713530" lon="0.688448">
        <ele>2046.6</ele>
        <time>2020-05-21T13:38:57Z</time>
      </trkpt>
      <trkpt lat="42.713512" lon="0.688333">
        <ele>2045.5</ele>
        <time>2020-05-21T13:39:09Z</time>
      </trkpt>
      <trkpt lat="42.713542" lon="0.688253">
        <ele>2042.9</ele>
        <time>2020-05-21T13:39:21Z</time>
      </trkpt>
      <trkpt lat="42.713496" lon="0.688082">
        <ele>2037.7</ele>
        <time>2020-05-21T13:39:57Z</time>
      </trkpt>
      <trkpt lat="42.713415" lon="0.688000">
        <ele>2035.6</ele>
        <time>2020-05-21T13:40:08Z</time>
      </trkpt>
      <trkpt lat="42.713376" lon="0.687888">
        <ele>2033.0</ele>
        <time>2020-05-21T13:40:19Z</time>
      </trkpt>
      <trkpt lat="42.713332" lon="0.687775">
        <ele>2031.3</ele>
        <time>2020-05-21T13:40:31Z</time>
      </trkpt>
      <trkpt lat="42.713307" lon="0.687642">
        <ele>2029.5</ele>
        <time>2020-05-21T13:40:43Z</time>
      </trkpt>
      <trkpt lat="42.713276" lon="0.687525">
        <ele>2028.6</ele>
        <time>2020-05-21T13:40:55Z</time>
      </trkpt>
      <trkpt lat="42.713248" lon="0.687407">
        <ele>2026.9</ele>
        <time>2020-05-21T13:41:06Z</time>
      </trkpt>
      <trkpt lat="42.713222" lon="0.687286">
        <ele>2025.1</ele>
        <time>2020-05-21T13:41:18Z</time>
      </trkpt>
      <trkpt lat="42.713215" lon="0.687160">
        <ele>2023.4</ele>
        <time>2020-05-21T13:41:28Z</time>
      </trkpt>
      <trkpt lat="42.713205" lon="0.687035">
        <ele>2022.5</ele>
        <time>2020-05-21T13:41:38Z</time>
      </trkpt>
      <trkpt lat="42.713212" lon="0.686915">
        <ele>2021.6</ele>
        <time>2020-05-21T13:41:47Z</time>
      </trkpt>
      <trkpt lat="42.713201" lon="0.686788">
        <ele>2021.5</ele>
        <time>2020-05-21T13:41:57Z</time>
      </trkpt>
      <trkpt lat="42.713200" lon="0.686662">
        <ele>2020.7</ele>
        <time>2020-05-21T13:42:07Z</time>
      </trkpt>
      <trkpt lat="42.713197" lon="0.686531">
        <ele>2020.7</ele>
        <time>2020-05-21T13:42:17Z</time>
      </trkpt>
      <trkpt lat="42.713197" lon="0.686399">
        <ele>2019.7</ele>
        <time>2020-05-21T13:42:27Z</time>
      </trkpt>
      <trkpt lat="42.713211" lon="0.686272">
        <ele>2019.7</ele>
        <time>2020-05-21T13:42:37Z</time>
      </trkpt>
      <trkpt lat="42.713209" lon="0.686148">
        <ele>2018.1</ele>
        <time>2020-05-21T13:42:47Z</time>
      </trkpt>
      <trkpt lat="42.713203" lon="0.686017">
        <ele>2017.0</ele>
        <time>2020-05-21T13:42:57Z</time>
      </trkpt>
      <trkpt lat="42.713211" lon="0.685897">
        <ele>2014.3</ele>
        <time>2020-05-21T13:43:09Z</time>
      </trkpt>
      <trkpt lat="42.713257" lon="0.685788">
        <ele>2012.4</ele>
        <time>2020-05-21T13:43:21Z</time>
      </trkpt>
      <trkpt lat="42.713311" lon="0.685690">
        <ele>2010.6</ele>
        <time>2020-05-21T13:43:33Z</time>
      </trkpt>
      <trkpt lat="42.713373" lon="0.685589">
        <ele>2007.7</ele>
        <time>2020-05-21T13:43:44Z</time>
      </trkpt>
      <trkpt lat="42.713424" lon="0.685478">
        <ele>2005.7</ele>
        <time>2020-05-21T13:43:53Z</time>
      </trkpt>
      <trkpt lat="42.713470" lon="0.685359">
        <ele>2003.9</ele>
        <time>2020-05-21T13:44:02Z</time>
      </trkpt>
      <trkpt lat="42.713521" lon="0.685251">
        <ele>2003.0</ele>
        <time>2020-05-21T13:44:11Z</time>
      </trkpt>
      <trkpt lat="42.713590" lon="0.685158">
        <ele>2002.2</ele>
        <time>2020-05-21T13:44:21Z</time>
      </trkpt>
      <trkpt lat="42.713650" lon="0.685068">
        <ele>2000.5</ele>
        <time>2020-05-21T13:44:31Z</time>
      </trkpt>
      <trkpt lat="42.713719" lon="0.684976">
        <ele>1997.9</ele>
        <time>2020-05-21T13:44:42Z</time>
      </trkpt>
      <trkpt lat="42.713785" lon="0.684873">
        <ele>1996.2</ele>
        <time>2020-05-21T13:44:53Z</time>
      </trkpt>
      <trkpt lat="42.713847" lon="0.684776">
        <ele>1994.5</ele>
        <time>2020-05-21T13:45:04Z</time>
      </trkpt>
      <trkpt lat="42.713905" lon="0.684674">
        <ele>1991.2</ele>
        <time>2020-05-21T13:45:15Z</time>
      </trkpt>
      <trkpt lat="42.713985" lon="0.684600">
        <ele>1989.3</ele>
        <time>2020-05-21T13:45:25Z</time>
      </trkpt>
      <trkpt lat="42.714071" lon="0.684559">
        <ele>1986.6</ele>
        <time>2020-05-21T13:45:35Z</time>
      </trkpt>
      <trkpt lat="42.714161" lon="0.684535">
        <ele>1985.8</ele>
        <time>2020-05-21T13:45:44Z</time>
      </trkpt>
      <trkpt lat="42.714238" lon="0.684467">
        <ele>1983.3</ele>
        <time>2020-05-21T13:45:53Z</time>
      </trkpt>
      <trkpt lat="42.714325" lon="0.684441">
        <ele>1982.3</ele>
        <time>2020-05-21T13:46:02Z</time>
      </trkpt>
      <trkpt lat="42.714413" lon="0.684452">
        <ele>1981.4</ele>
        <time>2020-05-21T13:46:12Z</time>
      </trkpt>
      <trkpt lat="42.714498" lon="0.684435">
        <ele>1980.6</ele>
        <time>2020-05-21T13:46:29Z</time>
      </trkpt>
      <trkpt lat="42.714586" lon="0.684456">
        <ele>1979.7</ele>
        <time>2020-05-21T13:46:39Z</time>
      </trkpt>
      <trkpt lat="42.714663" lon="0.684399">
        <ele>1979.7</ele>
        <time>2020-05-21T13:46:49Z</time>
      </trkpt>
      <trkpt lat="42.714743" lon="0.684337">
        <ele>1979.6</ele>
        <time>2020-05-21T13:47:00Z</time>
      </trkpt>
      <trkpt lat="42.714819" lon="0.684255">
        <ele>1979.6</ele>
        <time>2020-05-21T13:47:09Z</time>
      </trkpt>
      <trkpt lat="42.714891" lon="0.684176">
        <ele>1979.6</ele>
        <time>2020-05-21T13:47:17Z</time>
      </trkpt>
      <trkpt lat="42.714956" lon="0.684084">
        <ele>1979.5</ele>
        <time>2020-05-21T13:47:27Z</time>
      </trkpt>
      <trkpt lat="42.715022" lon="0.684007">
        <ele>1977.0</ele>
        <time>2020-05-21T13:47:37Z</time>
      </trkpt>
      <trkpt lat="42.715092" lon="0.683929">
        <ele>1977.0</ele>
        <time>2020-05-21T13:47:46Z</time>
      </trkpt>
      <trkpt lat="42.715162" lon="0.683838">
        <ele>1977.0</ele>
        <time>2020-05-21T13:47:56Z</time>
      </trkpt>
      <trkpt lat="42.715236" lon="0.683760">
        <ele>1976.9</ele>
        <time>2020-05-21T13:48:04Z</time>
      </trkpt>
      <trkpt lat="42.715309" lon="0.683690">
        <ele>1976.2</ele>
        <time>2020-05-21T13:48:12Z</time>
      </trkpt>
      <trkpt lat="42.715382" lon="0.683616">
        <ele>1975.3</ele>
        <time>2020-05-21T13:48:20Z</time>
      </trkpt>
      <trkpt lat="42.715453" lon="0.683539">
        <ele>1974.4</ele>
        <time>2020-05-21T13:48:30Z</time>
      </trkpt>
      <trkpt lat="42.715505" lon="0.683448">
        <ele>1972.8</ele>
        <time>2020-05-21T13:48:40Z</time>
      </trkpt>
      <trkpt lat="42.715546" lon="0.683346">
        <ele>1971.2</ele>
        <time>2020-05-21T13:48:50Z</time>
      </trkpt>
      <trkpt lat="42.715607" lon="0.683249">
        <ele>1968.5</ele>
        <time>2020-05-21T13:49:00Z</time>
      </trkpt>
      <trkpt lat="42.715667" lon="0.683156">
        <ele>1967.4</ele>
        <time>2020-05-21T13:49:09Z</time>
      </trkpt>
      <trkpt lat="42.715736" lon="0.683076">
        <ele>1966.6</ele>
        <time>2020-05-21T13:49:18Z</time>
      </trkpt>
      <trkpt lat="42.715803" lon="0.682984">
        <ele>1964.9</ele>
        <time>2020-05-21T13:49:27Z</time>
      </trkpt>
      <trkpt lat="42.715851" lon="0.682867">
        <ele>1963.0</ele>
        <time>2020-05-21T13:49:36Z</time>
      </trkpt>
      <trkpt lat="42.715887" lon="0.682756">
        <ele>1962.2</ele>
        <time>2020-05-21T13:49:46Z</time>
      </trkpt>
      <trkpt lat="42.715946" lon="0.682664">
        <ele>1960.5</ele>
        <time>2020-05-21T13:49:57Z</time>
      </trkpt>
      <trkpt lat="42.716005" lon="0.682573">
        <ele>1956.6</ele>
        <time>2020-05-21T13:50:07Z</time>
      </trkpt>
      <trkpt lat="42.716065" lon="0.682512">
        <ele>1954.7</ele>
        <time>2020-05-21T13:50:22Z</time>
      </trkpt>
      <trkpt lat="42.716130" lon="0.682460">
        <ele>1952.1</ele>
        <time>2020-05-21T13:50:35Z</time>
      </trkpt>
      <trkpt lat="42.716198" lon="0.682398">
        <ele>1949.4</ele>
        <time>2020-05-21T13:50:47Z</time>
      </trkpt>
      <trkpt lat="42.716290" lon="0.682388">
        <ele>1946.6</ele>
        <time>2020-05-21T13:51:18Z</time>
      </trkpt>
      <trkpt lat="42.716361" lon="0.682461">
        <ele>1945.0</ele>
        <time>2020-05-21T13:51:28Z</time>
      </trkpt>
      <trkpt lat="42.716435" lon="0.682507">
        <ele>1944.9</ele>
        <time>2020-05-21T13:51:41Z</time>
      </trkpt>
      <trkpt lat="42.716528" lon="0.682479">
        <ele>1943.2</ele>
        <time>2020-05-21T13:51:51Z</time>
      </trkpt>
      <trkpt lat="42.716627" lon="0.682428">
        <ele>1941.5</ele>
        <time>2020-05-21T13:52:00Z</time>
      </trkpt>
      <trkpt lat="42.716710" lon="0.682368">
        <ele>1939.6</ele>
        <time>2020-05-21T13:52:08Z</time>
      </trkpt>
      <trkpt lat="42.716781" lon="0.682276">
        <ele>1939.6</ele>
        <time>2020-05-21T13:52:22Z</time>
      </trkpt>
      <trkpt lat="42.716836" lon="0.682171">
        <ele>1939.6</ele>
        <time>2020-05-21T13:52:32Z</time>
      </trkpt>
      <trkpt lat="42.716874" lon="0.682043">
        <ele>1939.5</ele>
        <time>2020-05-21T13:52:46Z</time>
      </trkpt>
      <trkpt lat="42.716892" lon="0.682032">
        <ele>1939.2</ele>
        <time>2020-05-21T13:54:30Z</time>
      </trkpt>
      <trkpt lat="42.716861" lon="0.682030">
        <ele>1934.5</ele>
        <time>2020-05-21T14:15:18Z</time>
      </trkpt>
      <trkpt lat="42.716845" lon="0.681907">
        <ele>1934.5</ele>
        <time>2020-05-21T14:15:31Z</time>
      </trkpt>
      <trkpt lat="42.716786" lon="0.681817">
        <ele>1932.5</ele>
        <time>2020-05-21T14:15:43Z</time>
      </trkpt>
      <trkpt lat="42.716722" lon="0.681715">
        <ele>1930.6</ele>
        <time>2020-05-21T14:15:54Z</time>
      </trkpt>
      <trkpt lat="42.716682" lon="0.681597">
        <ele>1928.4</ele>
        <time>2020-05-21T14:16:03Z</time>
      </trkpt>
      <trkpt lat="42.716649" lon="0.681481">
        <ele>1926.8</ele>
        <time>2020-05-21T14:16:13Z</time>
      </trkpt>
      <trkpt lat="42.716592" lon="0.681389">
        <ele>1925.1</ele>
        <time>2020-05-21T14:16:21Z</time>
      </trkpt>
      <trkpt lat="42.716564" lon="0.681274">
        <ele>1922.6</ele>
        <time>2020-05-21T14:16:31Z</time>
      </trkpt>
      <trkpt lat="42.716542" lon="0.681160">
        <ele>1920.5</ele>
        <time>2020-05-21T14:16:40Z</time>
      </trkpt>
      <trkpt lat="42.716546" lon="0.681039">
        <ele>1919.4</ele>
        <time>2020-05-21T14:16:49Z</time>
      </trkpt>
      <trkpt lat="42.716558" lon="0.680910">
        <ele>1918.7</ele>
        <time>2020-05-21T14:16:59Z</time>
      </trkpt>
      <trkpt lat="42.716512" lon="0.680800">
        <ele>1916.8</ele>
        <time>2020-05-21T14:17:08Z</time>
      </trkpt>
      <trkpt lat="42.716466" lon="0.680689">
        <ele>1917.1</ele>
        <time>2020-05-21T14:17:18Z</time>
      </trkpt>
      <trkpt lat="42.716444" lon="0.680561">
        <ele>1914.0</ele>
        <time>2020-05-21T14:17:31Z</time>
      </trkpt>
      <trkpt lat="42.716431" lon="0.680437">
        <ele>1913.1</ele>
        <time>2020-05-21T14:17:43Z</time>
      </trkpt>
      <trkpt lat="42.716456" lon="0.680314">
        <ele>1912.0</ele>
        <time>2020-05-21T14:17:54Z</time>
      </trkpt>
      <trkpt lat="42.716483" lon="0.680204">
        <ele>1912.0</ele>
        <time>2020-05-21T14:18:05Z</time>
      </trkpt>
      <trkpt lat="42.716531" lon="0.680095">
        <ele>1911.8</ele>
        <time>2020-05-21T14:18:16Z</time>
      </trkpt>
      <trkpt lat="42.716555" lon="0.679969">
        <ele>1911.7</ele>
        <time>2020-05-21T14:18:26Z</time>
      </trkpt>
      <trkpt lat="42.716589" lon="0.679833">
        <ele>1911.7</ele>
        <time>2020-05-21T14:18:36Z</time>
      </trkpt>
      <trkpt lat="42.716607" lon="0.679715">
        <ele>1909.4</ele>
        <time>2020-05-21T14:18:45Z</time>
      </trkpt>
      <trkpt lat="42.716631" lon="0.679594">
        <ele>1908.6</ele>
        <time>2020-05-21T14:18:53Z</time>
      </trkpt>
      <trkpt lat="42.716658" lon="0.679478">
        <ele>1908.6</ele>
        <time>2020-05-21T14:19:01Z</time>
      </trkpt>
      <trkpt lat="42.716689" lon="0.679342">
        <ele>1908.5</ele>
        <time>2020-05-21T14:19:09Z</time>
      </trkpt>
      <trkpt lat="42.716708" lon="0.679203">
        <ele>1908.5</ele>
        <time>2020-05-21T14:19:17Z</time>
      </trkpt>
      <trkpt lat="42.716720" lon="0.679077">
        <ele>1908.6</ele>
        <time>2020-05-21T14:19:25Z</time>
      </trkpt>
      <trkpt lat="42.716725" lon="0.678949">
        <ele>1908.6</ele>
        <time>2020-05-21T14:19:34Z</time>
      </trkpt>
      <trkpt lat="42.716731" lon="0.678822">
        <ele>1908.6</ele>
        <time>2020-05-21T14:19:44Z</time>
      </trkpt>
      <trkpt lat="42.716737" lon="0.678690">
        <ele>1910.9</ele>
        <time>2020-05-21T14:19:55Z</time>
      </trkpt>
      <trkpt lat="42.716743" lon="0.678555">
        <ele>1912.0</ele>
        <time>2020-05-21T14:20:06Z</time>
      </trkpt>
      <trkpt lat="42.716745" lon="0.678421">
        <ele>1911.9</ele>
        <time>2020-05-21T14:20:17Z</time>
      </trkpt>
      <trkpt lat="42.716756" lon="0.678301">
        <ele>1911.9</ele>
        <time>2020-05-21T14:20:28Z</time>
      </trkpt>
      <trkpt lat="42.716766" lon="0.678175">
        <ele>1909.7</ele>
        <time>2020-05-21T14:20:40Z</time>
      </trkpt>
      <trkpt lat="42.716764" lon="0.678053">
        <ele>1907.7</ele>
        <time>2020-05-21T14:20:51Z</time>
      </trkpt>
      <trkpt lat="42.716778" lon="0.677933">
        <ele>1906.0</ele>
        <time>2020-05-21T14:21:01Z</time>
      </trkpt>
      <trkpt lat="42.716801" lon="0.677809">
        <ele>1904.4</ele>
        <time>2020-05-21T14:21:12Z</time>
      </trkpt>
      <trkpt lat="42.716784" lon="0.677712">
        <ele>1901.8</ele>
        <time>2020-05-21T14:21:22Z</time>
      </trkpt>
      <trkpt lat="42.716694" lon="0.677729">
        <ele>1900.9</ele>
        <time>2020-05-21T14:21:32Z</time>
      </trkpt>
      <trkpt lat="42.716602" lon="0.677752">
        <ele>1900.2</ele>
        <time>2020-05-21T14:21:41Z</time>
      </trkpt>
      <trkpt lat="42.716511" lon="0.677758">
        <ele>1899.2</ele>
        <time>2020-05-21T14:21:50Z</time>
      </trkpt>
      <trkpt lat="42.716424" lon="0.677719">
        <ele>1897.4</ele>
        <time>2020-05-21T14:21:59Z</time>
      </trkpt>
      <trkpt lat="42.716379" lon="0.677602">
        <ele>1895.6</ele>
        <time>2020-05-21T14:22:09Z</time>
      </trkpt>
      <trkpt lat="42.716416" lon="0.677480">
        <ele>1894.0</ele>
        <time>2020-05-21T14:22:20Z</time>
      </trkpt>
      <trkpt lat="42.716470" lon="0.677381">
        <ele>1892.4</ele>
        <time>2020-05-21T14:22:30Z</time>
      </trkpt>
      <trkpt lat="42.716520" lon="0.677264">
        <ele>1890.4</ele>
        <time>2020-05-21T14:22:40Z</time>
      </trkpt>
      <trkpt lat="42.716559" lon="0.677146">
        <ele>1887.6</ele>
        <time>2020-05-21T14:22:50Z</time>
      </trkpt>
      <trkpt lat="42.716589" lon="0.677024">
        <ele>1886.7</ele>
        <time>2020-05-21T14:22:59Z</time>
      </trkpt>
      <trkpt lat="42.716619" lon="0.676900">
        <ele>1885.0</ele>
        <time>2020-05-21T14:23:08Z</time>
      </trkpt>
      <trkpt lat="42.716648" lon="0.676774">
        <ele>1883.3</ele>
        <time>2020-05-21T14:23:17Z</time>
      </trkpt>
      <trkpt lat="42.716672" lon="0.676646">
        <ele>1882.3</ele>
        <time>2020-05-21T14:23:28Z</time>
      </trkpt>
      <trkpt lat="42.716698" lon="0.676522">
        <ele>1881.5</ele>
        <time>2020-05-21T14:23:38Z</time>
      </trkpt>
      <trkpt lat="42.716720" lon="0.676396">
        <ele>1880.7</ele>
        <time>2020-05-21T14:23:48Z</time>
      </trkpt>
      <trkpt lat="42.716661" lon="0.676317">
        <ele>1879.8</ele>
        <time>2020-05-21T14:23:59Z</time>
      </trkpt>
      <trkpt lat="42.716571" lon="0.676302">
        <ele>1879.8</ele>
        <time>2020-05-21T14:24:10Z</time>
      </trkpt>
      <trkpt lat="42.716494" lon="0.676235">
        <ele>1878.9</ele>
        <time>2020-05-21T14:24:22Z</time>
      </trkpt>
      <trkpt lat="42.716455" lon="0.676121">
        <ele>1877.1</ele>
        <time>2020-05-21T14:24:32Z</time>
      </trkpt>
      <trkpt lat="42.716442" lon="0.675996">
        <ele>1873.4</ele>
        <time>2020-05-21T14:24:44Z</time>
      </trkpt>
      <trkpt lat="42.716499" lon="0.675897">
        <ele>1872.5</ele>
        <time>2020-05-21T14:24:56Z</time>
      </trkpt>
      <trkpt lat="42.716566" lon="0.675845">
        <ele>1870.9</ele>
        <time>2020-05-21T14:25:07Z</time>
      </trkpt>
      <trkpt lat="42.716619" lon="0.675819">
        <ele>1867.5</ele>
        <time>2020-05-21T14:25:18Z</time>
      </trkpt>
      <trkpt lat="42.716642" lon="0.675703">
        <ele>1864.5</ele>
        <time>2020-05-21T14:25:28Z</time>
      </trkpt>
      <trkpt lat="42.716677" lon="0.675588">
        <ele>1861.7</ele>
        <time>2020-05-21T14:25:39Z</time>
      </trkpt>
      <trkpt lat="42.716693" lon="0.675464">
        <ele>1858.1</ele>
        <time>2020-05-21T14:25:52Z</time>
      </trkpt>
      <trkpt lat="42.716726" lon="0.675366">
        <ele>1855.3</ele>
        <time>2020-05-21T14:26:04Z</time>
      </trkpt>
      <trkpt lat="42.716773" lon="0.675277">
        <ele>1851.7</ele>
        <time>2020-05-21T14:26:15Z</time>
      </trkpt>
      <trkpt lat="42.716809" lon="0.675158">
        <ele>1847.7</ele>
        <time>2020-05-21T14:26:26Z</time>
      </trkpt>
      <trkpt lat="42.716864" lon="0.675068">
        <ele>1844.8</ele>
        <time>2020-05-21T14:26:37Z</time>
      </trkpt>
      <trkpt lat="42.716918" lon="0.674960">
        <ele>1841.3</ele>
        <time>2020-05-21T14:26:50Z</time>
      </trkpt>
      <trkpt lat="42.716959" lon="0.674869">
        <ele>1839.5</ele>
        <time>2020-05-21T14:27:25Z</time>
      </trkpt>
      <trkpt lat="42.717016" lon="0.674770">
        <ele>1837.8</ele>
        <time>2020-05-21T14:27:36Z</time>
      </trkpt>
      <trkpt lat="42.717083" lon="0.674676">
        <ele>1836.2</ele>
        <time>2020-05-21T14:27:46Z</time>
      </trkpt>
      <trkpt lat="42.717144" lon="0.674572">
        <ele>1835.1</ele>
        <time>2020-05-21T14:27:57Z</time>
      </trkpt>
      <trkpt lat="42.717189" lon="0.674463">
        <ele>1833.4</ele>
        <time>2020-05-21T14:28:07Z</time>
      </trkpt>
      <trkpt lat="42.717236" lon="0.674348">
        <ele>1831.7</ele>
        <time>2020-05-21T14:28:16Z</time>
      </trkpt>
      <trkpt lat="42.717288" lon="0.674232">
        <ele>1830.0</ele>
        <time>2020-05-21T14:28:27Z</time>
      </trkpt>
      <trkpt lat="42.717350" lon="0.674130">
        <ele>1829.2</ele>
        <time>2020-05-21T14:28:38Z</time>
      </trkpt>
      <trkpt lat="42.717397" lon="0.674022">
        <ele>1827.5</ele>
        <time>2020-05-21T14:28:50Z</time>
      </trkpt>
      <trkpt lat="42.717446" lon="0.673918">
        <ele>1824.3</ele>
        <time>2020-05-21T14:29:00Z</time>
      </trkpt>
      <trkpt lat="42.717508" lon="0.673813">
        <ele>1822.7</ele>
        <time>2020-05-21T14:29:10Z</time>
      </trkpt>
      <trkpt lat="42.717570" lon="0.673715">
        <ele>1821.7</ele>
        <time>2020-05-21T14:29:20Z</time>
      </trkpt>
      <trkpt lat="42.717629" lon="0.673600">
        <ele>1819.8</ele>
        <time>2020-05-21T14:29:29Z</time>
      </trkpt>
      <trkpt lat="42.717688" lon="0.673490">
        <ele>1817.0</ele>
        <time>2020-05-21T14:29:38Z</time>
      </trkpt>
      <trkpt lat="42.717741" lon="0.673383">
        <ele>1815.3</ele>
        <time>2020-05-21T14:29:47Z</time>
      </trkpt>
      <trkpt lat="42.717792" lon="0.673279">
        <ele>1812.7</ele>
        <time>2020-05-21T14:29:56Z</time>
      </trkpt>
      <trkpt lat="42.717813" lon="0.673154">
        <ele>1810.9</ele>
        <time>2020-05-21T14:30:05Z</time>
      </trkpt>
      <trkpt lat="42.717829" lon="0.673024">
        <ele>1809.1</ele>
        <time>2020-05-21T14:30:15Z</time>
      </trkpt>
      <trkpt lat="42.717848" lon="0.672898">
        <ele>1807.4</ele>
        <time>2020-05-21T14:30:24Z</time>
      </trkpt>
      <trkpt lat="42.717902" lon="0.672779">
        <ele>1805.7</ele>
        <time>2020-05-21T14:30:33Z</time>
      </trkpt>
      <trkpt lat="42.717951" lon="0.672670">
        <ele>1804.1</ele>
        <time>2020-05-21T14:30:41Z</time>
      </trkpt>
      <trkpt lat="42.717980" lon="0.672553">
        <ele>1803.3</ele>
        <time>2020-05-21T14:30:51Z</time>
      </trkpt>
      <trkpt lat="42.718022" lon="0.672451">
        <ele>1803.2</ele>
        <time>2020-05-21T14:31:55Z</time>
      </trkpt>
      <trkpt lat="42.718068" lon="0.672326">
        <ele>1800.8</ele>
        <time>2020-05-21T14:32:03Z</time>
      </trkpt>
      <trkpt lat="42.718100" lon="0.672203">
        <ele>1800.0</ele>
        <time>2020-05-21T14:32:11Z</time>
      </trkpt>
      <trkpt lat="42.718138" lon="0.672083">
        <ele>1799.1</ele>
        <time>2020-05-21T14:32:19Z</time>
      </trkpt>
      <trkpt lat="42.718180" lon="0.671961">
        <ele>1799.1</ele>
        <time>2020-05-21T14:32:27Z</time>
      </trkpt>
      <trkpt lat="42.718222" lon="0.671827">
        <ele>1798.3</ele>
        <time>2020-05-21T14:32:36Z</time>
      </trkpt>
      <trkpt lat="42.718258" lon="0.671709">
        <ele>1798.3</ele>
        <time>2020-05-21T14:32:44Z</time>
      </trkpt>
      <trkpt lat="42.718291" lon="0.671588">
        <ele>1797.4</ele>
        <time>2020-05-21T14:32:52Z</time>
      </trkpt>
      <trkpt lat="42.718309" lon="0.671454">
        <ele>1795.6</ele>
        <time>2020-05-21T14:33:01Z</time>
      </trkpt>
      <trkpt lat="42.718322" lon="0.671314">
        <ele>1794.0</ele>
        <time>2020-05-21T14:33:11Z</time>
      </trkpt>
      <trkpt lat="42.718347" lon="0.671191">
        <ele>1792.2</ele>
        <time>2020-05-21T14:33:20Z</time>
      </trkpt>
      <trkpt lat="42.718371" lon="0.671065">
        <ele>1792.2</ele>
        <time>2020-05-21T14:33:29Z</time>
      </trkpt>
      <trkpt lat="42.718385" lon="0.670946">
        <ele>1790.5</ele>
        <time>2020-05-21T14:33:40Z</time>
      </trkpt>
      <trkpt lat="42.718410" lon="0.670829">
        <ele>1788.6</ele>
        <time>2020-05-21T14:33:51Z</time>
      </trkpt>
      <trkpt lat="42.718457" lon="0.670717">
        <ele>1786.4</ele>
        <time>2020-05-21T14:34:00Z</time>
      </trkpt>
      <trkpt lat="42.718505" lon="0.670597">
        <ele>1783.0</ele>
        <time>2020-05-21T14:34:10Z</time>
      </trkpt>
      <trkpt lat="42.718527" lon="0.670478">
        <ele>1781.3</ele>
        <time>2020-05-21T14:34:19Z</time>
      </trkpt>
      <trkpt lat="42.718531" lon="0.670340">
        <ele>1779.4</ele>
        <time>2020-05-21T14:34:28Z</time>
      </trkpt>
      <trkpt lat="42.718532" lon="0.670204">
        <ele>1777.9</ele>
        <time>2020-05-21T14:34:37Z</time>
      </trkpt>
      <trkpt lat="42.718533" lon="0.670065">
        <ele>1776.0</ele>
        <time>2020-05-21T14:34:46Z</time>
      </trkpt>
      <trkpt lat="42.718556" lon="0.669933">
        <ele>1774.5</ele>
        <time>2020-05-21T14:34:55Z</time>
      </trkpt>
      <trkpt lat="42.718574" lon="0.669797">
        <ele>1771.8</ele>
        <time>2020-05-21T14:35:06Z</time>
      </trkpt>
      <trkpt lat="42.718586" lon="0.669673">
        <ele>1770.8</ele>
        <time>2020-05-21T14:35:16Z</time>
      </trkpt>
      <trkpt lat="42.718589" lon="0.669537">
        <ele>1768.2</ele>
        <time>2020-05-21T14:35:26Z</time>
      </trkpt>
      <trkpt lat="42.718585" lon="0.669403">
        <ele>1767.3</ele>
        <time>2020-05-21T14:35:35Z</time>
      </trkpt>
      <trkpt lat="42.718572" lon="0.669264">
        <ele>1765.2</ele>
        <time>2020-05-21T14:35:44Z</time>
      </trkpt>
      <trkpt lat="42.718567" lon="0.669132">
        <ele>1764.4</ele>
        <time>2020-05-21T14:35:53Z</time>
      </trkpt>
      <trkpt lat="42.718572" lon="0.669004">
        <ele>1762.8</ele>
        <time>2020-05-21T14:37:55Z</time>
      </trkpt>
      <trkpt lat="42.718572" lon="0.668874">
        <ele>1762.0</ele>
        <time>2020-05-21T14:38:05Z</time>
      </trkpt>
      <trkpt lat="42.718577" lon="0.668739">
        <ele>1760.2</ele>
        <time>2020-05-21T14:38:15Z</time>
      </trkpt>
      <trkpt lat="42.718578" lon="0.668601">
        <ele>1759.4</ele>
        <time>2020-05-21T14:38:24Z</time>
      </trkpt>
      <trkpt lat="42.718567" lon="0.668467">
        <ele>1758.6</ele>
        <time>2020-05-21T14:38:32Z</time>
      </trkpt>
      <trkpt lat="42.718560" lon="0.668330">
        <ele>1757.7</ele>
        <time>2020-05-21T14:38:40Z</time>
      </trkpt>
      <trkpt lat="42.718561" lon="0.668188">
        <ele>1756.8</ele>
        <time>2020-05-21T14:38:48Z</time>
      </trkpt>
      <trkpt lat="42.718553" lon="0.668069">
        <ele>1754.8</ele>
        <time>2020-05-21T14:38:55Z</time>
      </trkpt>
      <trkpt lat="42.718538" lon="0.667934">
        <ele>1753.0</ele>
        <time>2020-05-21T14:39:03Z</time>
      </trkpt>
      <trkpt lat="42.718538" lon="0.667806">
        <ele>1751.0</ele>
        <time>2020-05-21T14:39:11Z</time>
      </trkpt>
      <trkpt lat="42.718514" lon="0.667716">
        <ele>1748.8</ele>
        <time>2020-05-21T14:40:51Z</time>
      </trkpt>
      <trkpt lat="42.718519" lon="0.667589">
        <ele>1748.6</ele>
        <time>2020-05-21T14:41:52Z</time>
      </trkpt>
      <trkpt lat="42.718518" lon="0.667461">
        <ele>1746.8</ele>
        <time>2020-05-21T14:42:10Z</time>
      </trkpt>
      <trkpt lat="42.718509" lon="0.667332">
        <ele>1745.9</ele>
        <time>2020-05-21T14:42:18Z</time>
      </trkpt>
      <trkpt lat="42.718489" lon="0.667197">
        <ele>1744.2</ele>
        <time>2020-05-21T14:42:26Z</time>
      </trkpt>
      <trkpt lat="42.718480" lon="0.667073">
        <ele>1742.2</ele>
        <time>2020-05-21T14:42:33Z</time>
      </trkpt>
      <trkpt lat="42.718463" lon="0.666948">
        <ele>1741.4</ele>
        <time>2020-05-21T14:42:41Z</time>
      </trkpt>
      <trkpt lat="42.718460" lon="0.666814">
        <ele>1739.5</ele>
        <time>2020-05-21T14:42:49Z</time>
      </trkpt>
      <trkpt lat="42.718447" lon="0.666682">
        <ele>1738.6</ele>
        <time>2020-05-21T14:42:57Z</time>
      </trkpt>
      <trkpt lat="42.718432" lon="0.666555">
        <ele>1738.7</ele>
        <time>2020-05-21T14:43:05Z</time>
      </trkpt>
      <trkpt lat="42.718423" lon="0.666431">
        <ele>1737.9</ele>
        <time>2020-05-21T14:43:13Z</time>
      </trkpt>
      <trkpt lat="42.718411" lon="0.666311">
        <ele>1737.0</ele>
        <time>2020-05-21T14:43:21Z</time>
      </trkpt>
      <trkpt lat="42.718401" lon="0.666179">
        <ele>1735.2</ele>
        <time>2020-05-21T14:43:30Z</time>
      </trkpt>
      <trkpt lat="42.718397" lon="0.666047">
        <ele>1734.3</ele>
        <time>2020-05-21T14:43:39Z</time>
      </trkpt>
      <trkpt lat="42.718378" lon="0.665915">
        <ele>1731.8</ele>
        <time>2020-05-21T14:43:48Z</time>
      </trkpt>
      <trkpt lat="42.718368" lon="0.665788">
        <ele>1729.0</ele>
        <time>2020-05-21T14:43:56Z</time>
      </trkpt>
      <trkpt lat="42.718369" lon="0.665666">
        <ele>1727.2</ele>
        <time>2020-05-21T14:44:04Z</time>
      </trkpt>
      <trkpt lat="42.718380" lon="0.665545">
        <ele>1726.4</ele>
        <time>2020-05-21T14:44:15Z</time>
      </trkpt>
      <trkpt lat="42.718406" lon="0.665422">
        <ele>1725.6</ele>
        <time>2020-05-21T14:44:23Z</time>
      </trkpt>
      <trkpt lat="42.718462" lon="0.665324">
        <ele>1724.7</ele>
        <time>2020-05-21T14:44:31Z</time>
      </trkpt>
      <trkpt lat="42.718552" lon="0.665272">
        <ele>1722.8</ele>
        <time>2020-05-21T14:44:39Z</time>
      </trkpt>
      <trkpt lat="42.718602" lon="0.665172">
        <ele>1721.9</ele>
        <time>2020-05-21T14:44:47Z</time>
      </trkpt>
      <trkpt lat="42.718574" lon="0.665045">
        <ele>1720.9</ele>
        <time>2020-05-21T14:44:55Z</time>
      </trkpt>
      <trkpt lat="42.718541" lon="0.664933">
        <ele>1720.1</ele>
        <time>2020-05-21T14:45:05Z</time>
      </trkpt>
      <trkpt lat="42.718544" lon="0.664813">
        <ele>1717.1</ele>
        <time>2020-05-21T14:45:15Z</time>
      </trkpt>
      <trkpt lat="42.718549" lon="0.664675">
        <ele>1713.0</ele>
        <time>2020-05-21T14:45:35Z</time>
      </trkpt>
      <trkpt lat="42.718608" lon="0.664590">
        <ele>1709.7</ele>
        <time>2020-05-21T14:45:45Z</time>
      </trkpt>
      <trkpt lat="42.718653" lon="0.664472">
        <ele>1705.4</ele>
        <time>2020-05-21T14:46:03Z</time>
      </trkpt>
      <trkpt lat="42.718687" lon="0.664383">
        <ele>1702.6</ele>
        <time>2020-05-21T14:46:12Z</time>
      </trkpt>
      <trkpt lat="42.718774" lon="0.664388">
        <ele>1700.8</ele>
        <time>2020-05-21T14:46:21Z</time>
      </trkpt>
      <trkpt lat="42.718847" lon="0.664368">
        <ele>1696.7</ele>
        <time>2020-05-21T14:46:33Z</time>
      </trkpt>
      <trkpt lat="42.718943" lon="0.664320">
        <ele>1694.9</ele>
        <time>2020-05-21T14:46:43Z</time>
      </trkpt>
      <trkpt lat="42.719005" lon="0.664242">
        <ele>1693.3</ele>
        <time>2020-05-21T14:46:52Z</time>
      </trkpt>
      <trkpt lat="42.719066" lon="0.664154">
        <ele>1690.4</ele>
        <time>2020-05-21T14:47:01Z</time>
      </trkpt>
      <trkpt lat="42.719168" lon="0.664135">
        <ele>1688.6</ele>
        <time>2020-05-21T14:47:11Z</time>
      </trkpt>
      <trkpt lat="42.719247" lon="0.664073">
        <ele>1686.8</ele>
        <time>2020-05-21T14:47:21Z</time>
      </trkpt>
      <trkpt lat="42.719298" lon="0.663967">
        <ele>1684.2</ele>
        <time>2020-05-21T14:47:29Z</time>
      </trkpt>
      <trkpt lat="42.719347" lon="0.663859">
        <ele>1682.1</ele>
        <time>2020-05-21T14:47:37Z</time>
      </trkpt>
      <trkpt lat="42.719392" lon="0.663747">
        <ele>1679.6</ele>
        <time>2020-05-21T14:47:45Z</time>
      </trkpt>
      <trkpt lat="42.719434" lon="0.663633">
        <ele>1678.0</ele>
        <time>2020-05-21T14:47:53Z</time>
      </trkpt>
      <trkpt lat="42.719514" lon="0.663563">
        <ele>1676.3</ele>
        <time>2020-05-21T14:48:02Z</time>
      </trkpt>
      <trkpt lat="42.719571" lon="0.663475">
        <ele>1672.5</ele>
        <time>2020-05-21T14:48:13Z</time>
      </trkpt>
      <trkpt lat="42.719616" lon="0.663354">
        <ele>1669.6</ele>
        <time>2020-05-21T14:48:22Z</time>
      </trkpt>
      <trkpt lat="42.719661" lon="0.663244">
        <ele>1666.7</ele>
        <time>2020-05-21T14:48:30Z</time>
      </trkpt>
      <trkpt lat="42.719736" lon="0.663165">
        <ele>1663.9</ele>
        <time>2020-05-21T14:48:38Z</time>
      </trkpt>
      <trkpt lat="42.719804" lon="0.663066">
        <ele>1662.1</ele>
        <time>2020-05-21T14:48:46Z</time>
      </trkpt>
      <trkpt lat="42.719826" lon="0.662932">
        <ele>1660.4</ele>
        <time>2020-05-21T14:48:54Z</time>
      </trkpt>
      <trkpt lat="42.719818" lon="0.662795">
        <ele>1659.5</ele>
        <time>2020-05-21T14:49:02Z</time>
      </trkpt>
      <trkpt lat="42.719840" lon="0.662662">
        <ele>1657.7</ele>
        <time>2020-05-21T14:49:10Z</time>
      </trkpt>
      <trkpt lat="42.719894" lon="0.662554">
        <ele>1655.9</ele>
        <time>2020-05-21T14:49:18Z</time>
      </trkpt>
      <trkpt lat="42.719966" lon="0.662461">
        <ele>1653.1</ele>
        <time>2020-05-21T14:49:27Z</time>
      </trkpt>
      <trkpt lat="42.720048" lon="0.662381">
        <ele>1650.2</ele>
        <time>2020-05-21T14:49:36Z</time>
      </trkpt>
      <trkpt lat="42.720079" lon="0.662275">
        <ele>1647.4</ele>
        <time>2020-05-21T14:49:45Z</time>
      </trkpt>
      <trkpt lat="42.720103" lon="0.662151">
        <ele>1644.6</ele>
        <time>2020-05-21T14:49:53Z</time>
      </trkpt>
      <trkpt lat="42.720125" lon="0.662023">
        <ele>1642.0</ele>
        <time>2020-05-21T14:50:01Z</time>
      </trkpt>
      <trkpt lat="42.720150" lon="0.661894">
        <ele>1639.1</ele>
        <time>2020-05-21T14:50:09Z</time>
      </trkpt>
      <trkpt lat="42.720102" lon="0.661839">
        <ele>1636.2</ele>
        <time>2020-05-21T14:50:19Z</time>
      </trkpt>
      <trkpt lat="42.720016" lon="0.661871">
        <ele>1634.3</ele>
        <time>2020-05-21T14:50:27Z</time>
      </trkpt>
      <trkpt lat="42.719944" lon="0.661929">
        <ele>1630.7</ele>
        <time>2020-05-21T14:50:41Z</time>
      </trkpt>
      <trkpt lat="42.719846" lon="0.661950">
        <ele>1627.2</ele>
        <time>2020-05-21T14:50:55Z</time>
      </trkpt>
      <trkpt lat="42.719754" lon="0.661943">
        <ele>1624.7</ele>
        <time>2020-05-21T14:51:03Z</time>
      </trkpt>
      <trkpt lat="42.719666" lon="0.661949">
        <ele>1621.8</ele>
        <time>2020-05-21T14:51:10Z</time>
      </trkpt>
      <trkpt lat="42.719580" lon="0.661904">
        <ele>1621.0</ele>
        <time>2020-05-21T14:51:18Z</time>
      </trkpt>
      <trkpt lat="42.719490" lon="0.661940">
        <ele>1618.1</ele>
        <time>2020-05-21T14:51:27Z</time>
      </trkpt>
      <trkpt lat="42.719409" lon="0.661998">
        <ele>1616.4</ele>
        <time>2020-05-21T14:51:36Z</time>
      </trkpt>
      <trkpt lat="42.719323" lon="0.662036">
        <ele>1614.4</ele>
        <time>2020-05-21T14:51:46Z</time>
      </trkpt>
      <trkpt lat="42.719236" lon="0.662067">
        <ele>1612.6</ele>
        <time>2020-05-21T14:51:55Z</time>
      </trkpt>
      <trkpt lat="42.719150" lon="0.662135">
        <ele>1611.6</ele>
        <time>2020-05-21T14:52:03Z</time>
      </trkpt>
      <trkpt lat="42.719080" lon="0.662207">
        <ele>1609.0</ele>
        <time>2020-05-21T14:52:13Z</time>
      </trkpt>
      <trkpt lat="42.719105" lon="0.662116">
        <ele>1606.4</ele>
        <time>2020-05-21T14:52:24Z</time>
      </trkpt>
      <trkpt lat="42.719153" lon="0.662006">
        <ele>1603.7</ele>
        <time>2020-05-21T14:52:33Z</time>
      </trkpt>
      <trkpt lat="42.719222" lon="0.661917">
        <ele>1601.2</ele>
        <time>2020-05-21T14:52:43Z</time>
      </trkpt>
      <trkpt lat="42.719293" lon="0.661822">
        <ele>1599.4</ele>
        <time>2020-05-21T14:53:00Z</time>
      </trkpt>
      <trkpt lat="42.719340" lon="0.661722">
        <ele>1596.3</ele>
        <time>2020-05-21T14:53:16Z</time>
      </trkpt>
      <trkpt lat="42.719415" lon="0.661634">
        <ele>1593.6</ele>
        <time>2020-05-21T14:53:29Z</time>
      </trkpt>
      <trkpt lat="42.719470" lon="0.661530">
        <ele>1590.0</ele>
        <time>2020-05-21T14:53:51Z</time>
      </trkpt>
      <trkpt lat="42.719399" lon="0.661489">
        <ele>1587.1</ele>
        <time>2020-05-21T14:54:04Z</time>
      </trkpt>
      <trkpt lat="42.719303" lon="0.661508">
        <ele>1584.3</ele>
        <time>2020-05-21T14:54:13Z</time>
      </trkpt>
      <trkpt lat="42.719196" lon="0.661543">
        <ele>1580.2</ele>
        <time>2020-05-21T14:54:25Z</time>
      </trkpt>
      <trkpt lat="42.719081" lon="0.661608">
        <ele>1575.6</ele>
        <time>2020-05-21T14:54:39Z</time>
      </trkpt>
      <trkpt lat="42.718952" lon="0.661624">
        <ele>1571.6</ele>
        <time>2020-05-21T14:54:52Z</time>
      </trkpt>
      <trkpt lat="42.718836" lon="0.661709">
        <ele>1568.5</ele>
        <time>2020-05-21T14:55:04Z</time>
      </trkpt>
      <trkpt lat="42.718726" lon="0.661776">
        <ele>1566.6</ele>
        <time>2020-05-21T14:55:12Z</time>
      </trkpt>
      <trkpt lat="42.718642" lon="0.661812">
        <ele>1564.6</ele>
        <time>2020-05-21T14:55:22Z</time>
      </trkpt>
      <trkpt lat="42.718583" lon="0.662001">
        <ele>1562.3</ele>
        <time>2020-05-21T14:55:35Z</time>
      </trkpt>
      <trkpt lat="42.718458" lon="0.662169">
        <ele>1559.5</ele>
        <time>2020-05-21T14:55:50Z</time>
      </trkpt>
      <trkpt lat="42.718331" lon="0.662339">
        <ele>1556.6</ele>
        <time>2020-05-21T14:56:07Z</time>
      </trkpt>
      <trkpt lat="42.718218" lon="0.662419">
        <ele>1553.8</ele>
        <time>2020-05-21T14:56:19Z</time>
      </trkpt>
      <trkpt lat="42.718094" lon="0.662394">
        <ele>1551.7</ele>
        <time>2020-05-21T14:56:27Z</time>
      </trkpt>
      <trkpt lat="42.717969" lon="0.662442">
        <ele>1549.7</ele>
        <time>2020-05-21T14:56:36Z</time>
      </trkpt>
      <trkpt lat="42.717846" lon="0.662503">
        <ele>1546.8</ele>
        <time>2020-05-21T14:56:46Z</time>
      </trkpt>
      <trkpt lat="42.717777" lon="0.662692">
        <ele>1546.7</ele>
        <time>2020-05-21T14:56:57Z</time>
      </trkpt>
      <trkpt lat="42.717689" lon="0.662833">
        <ele>1546.5</ele>
        <time>2020-05-21T14:57:12Z</time>
      </trkpt>
      <trkpt lat="42.717543" lon="0.662938">
        <ele>1544.4</ele>
        <time>2020-05-21T14:57:25Z</time>
      </trkpt>
      <trkpt lat="42.717549" lon="0.662715">
        <ele>1538.9</ele>
        <time>2020-05-21T14:57:42Z</time>
      </trkpt>
      <trkpt lat="42.717611" lon="0.662534">
        <ele>1535.4</ele>
        <time>2020-05-21T14:57:56Z</time>
      </trkpt>
      <trkpt lat="42.717663" lon="0.662321">
        <ele>1531.8</ele>
        <time>2020-05-21T14:58:10Z</time>
      </trkpt>
      <trkpt lat="42.717723" lon="0.662135">
        <ele>1527.5</ele>
        <time>2020-05-21T14:58:23Z</time>
      </trkpt>
      <trkpt lat="42.717792" lon="0.661972">
        <ele>1523.1</ele>
        <time>2020-05-21T14:58:40Z</time>
      </trkpt>
      <trkpt lat="42.717904" lon="0.661833">
        <ele>1520.5</ele>
        <time>2020-05-21T14:58:55Z</time>
      </trkpt>
      <trkpt lat="42.718061" lon="0.661556">
        <ele>1517.0</ele>
        <time>2020-05-21T14:59:14Z</time>
      </trkpt>
      <trkpt lat="42.718126" lon="0.661264">
        <ele>1513.5</ele>
        <time>2020-05-21T14:59:31Z</time>
      </trkpt>
      <trkpt lat="42.718215" lon="0.661060">
        <ele>1509.7</ele>
        <time>2020-05-21T14:59:46Z</time>
      </trkpt>
      <trkpt lat="42.718289" lon="0.660855">
        <ele>1506.2</ele>
        <time>2020-05-21T15:00:02Z</time>
      </trkpt>
      <trkpt lat="42.718346" lon="0.660644">
        <ele>1502.9</ele>
        <time>2020-05-21T15:00:16Z</time>
      </trkpt>
      <trkpt lat="42.718403" lon="0.660509">
        <ele>1500.3</ele>
        <time>2020-05-21T15:00:27Z</time>
      </trkpt>
      <trkpt lat="42.718483" lon="0.660338">
        <ele>1496.6</ele>
        <time>2020-05-21T15:00:40Z</time>
      </trkpt>
      <trkpt lat="42.718548" lon="0.660130">
        <ele>1492.9</ele>
        <time>2020-05-21T15:00:54Z</time>
      </trkpt>
      <trkpt lat="42.718605" lon="0.659980">
        <ele>1490.3</ele>
        <time>2020-05-21T15:01:07Z</time>
      </trkpt>
      <trkpt lat="42.718656" lon="0.659813">
        <ele>1486.9</ele>
        <time>2020-05-21T15:01:20Z</time>
      </trkpt>
      <trkpt lat="42.718559" lon="0.659806">
        <ele>1483.3</ele>
        <time>2020-05-21T15:01:34Z</time>
      </trkpt>
      <trkpt lat="42.718498" lon="0.659809">
        <ele>1479.9</ele>
        <time>2020-05-21T15:01:49Z</time>
      </trkpt>
      <trkpt lat="42.718589" lon="0.659631">
        <ele>1477.1</ele>
        <time>2020-05-21T15:02:03Z</time>
      </trkpt>
      <trkpt lat="42.718713" lon="0.659496">
        <ele>1473.1</ele>
        <time>2020-05-21T15:02:17Z</time>
      </trkpt>
      <trkpt lat="42.718763" lon="0.659343">
        <ele>1470.2</ele>
        <time>2020-05-21T15:02:30Z</time>
      </trkpt>
      <trkpt lat="42.718609" lon="0.659366">
        <ele>1467.1</ele>
        <time>2020-05-21T15:02:44Z</time>
      </trkpt>
      <trkpt lat="42.718449" lon="0.659434">
        <ele>1464.4</ele>
        <time>2020-05-21T15:02:58Z</time>
      </trkpt>
      <trkpt lat="42.718278" lon="0.659522">
        <ele>1462.3</ele>
        <time>2020-05-21T15:03:11Z</time>
      </trkpt>
      <trkpt lat="42.718131" lon="0.659601">
        <ele>1458.5</ele>
        <time>2020-05-21T15:03:24Z</time>
      </trkpt>
      <trkpt lat="42.718135" lon="0.659465">
        <ele>1455.0</ele>
        <time>2020-05-21T15:03:39Z</time>
      </trkpt>
      <trkpt lat="42.718202" lon="0.659297">
        <ele>1451.6</ele>
        <time>2020-05-21T15:03:50Z</time>
      </trkpt>
      <trkpt lat="42.718326" lon="0.659140">
        <ele>1448.9</ele>
        <time>2020-05-21T15:04:03Z</time>
      </trkpt>
      <trkpt lat="42.718437" lon="0.658945">
        <ele>1446.1</ele>
        <time>2020-05-21T15:04:17Z</time>
      </trkpt>
      <trkpt lat="42.718571" lon="0.658793">
        <ele>1443.2</ele>
        <time>2020-05-21T15:04:31Z</time>
      </trkpt>
      <trkpt lat="42.718506" lon="0.658662">
        <ele>1439.6</ele>
        <time>2020-05-21T15:04:48Z</time>
      </trkpt>
      <trkpt lat="42.718342" lon="0.658701">
        <ele>1438.7</ele>
        <time>2020-05-21T15:05:00Z</time>
      </trkpt>
      <trkpt lat="42.718220" lon="0.658618">
        <ele>1435.5</ele>
        <time>2020-05-21T15:05:17Z</time>
      </trkpt>
      <trkpt lat="42.718354" lon="0.658518">
        <ele>1432.8</ele>
        <time>2020-05-21T15:05:34Z</time>
      </trkpt>
      <trkpt lat="42.718513" lon="0.658398">
        <ele>1429.4</ele>
        <time>2020-05-21T15:05:50Z</time>
      </trkpt>
      <trkpt lat="42.718728" lon="0.658346">
        <ele>1426.9</ele>
        <time>2020-05-21T15:06:07Z</time>
      </trkpt>
      <trkpt lat="42.718847" lon="0.658372">
        <ele>1425.1</ele>
        <time>2020-05-21T15:06:23Z</time>
      </trkpt>
      <trkpt lat="42.718930" lon="0.658218">
        <ele>1424.2</ele>
        <time>2020-05-21T15:06:40Z</time>
      </trkpt>
      <trkpt lat="42.719051" lon="0.658135">
        <ele>1422.3</ele>
        <time>2020-05-21T15:06:57Z</time>
      </trkpt>
      <trkpt lat="42.719218" lon="0.657994">
        <ele>1419.8</ele>
        <time>2020-05-21T15:07:13Z</time>
      </trkpt>
      <trkpt lat="42.719318" lon="0.657848">
        <ele>1418.1</ele>
        <time>2020-05-21T15:07:24Z</time>
      </trkpt>
      <trkpt lat="42.719433" lon="0.657750">
        <ele>1416.3</ele>
        <time>2020-05-21T15:07:36Z</time>
      </trkpt>
      <trkpt lat="42.719574" lon="0.657605">
        <ele>1413.2</ele>
        <time>2020-05-21T15:07:53Z</time>
      </trkpt>
      <trkpt lat="42.719726" lon="0.657496">
        <ele>1410.4</ele>
        <time>2020-05-21T15:08:09Z</time>
      </trkpt>
      <trkpt lat="42.719884" lon="0.657366">
        <ele>1407.5</ele>
        <time>2020-05-21T15:08:23Z</time>
      </trkpt>
      <trkpt lat="42.719962" lon="0.657211">
        <ele>1405.8</ele>
        <time>2020-05-21T15:08:33Z</time>
      </trkpt>
      <trkpt lat="42.720006" lon="0.657072">
        <ele>1404.7</ele>
        <time>2020-05-21T15:08:41Z</time>
      </trkpt>
      <trkpt lat="42.720027" lon="0.656929">
        <ele>1403.1</ele>
        <time>2020-05-21T15:08:51Z</time>
      </trkpt>
      <trkpt lat="42.720041" lon="0.656789">
        <ele>1402.2</ele>
        <time>2020-05-21T15:08:59Z</time>
      </trkpt>
      <trkpt lat="42.720076" lon="0.656678">
        <ele>1401.4</ele>
        <time>2020-05-21T15:09:07Z</time>
      </trkpt>
      <trkpt lat="42.720138" lon="0.656582">
        <ele>1399.7</ele>
        <time>2020-05-21T15:09:15Z</time>
      </trkpt>
      <trkpt lat="42.720194" lon="0.656476">
        <ele>1398.8</ele>
        <time>2020-05-21T15:09:23Z</time>
      </trkpt>
      <trkpt lat="42.720231" lon="0.656369">
        <ele>1397.9</ele>
        <time>2020-05-21T15:09:31Z</time>
      </trkpt>
      <trkpt lat="42.720286" lon="0.656261">
        <ele>1397.0</ele>
        <time>2020-05-21T15:09:39Z</time>
      </trkpt>
      <trkpt lat="42.720336" lon="0.656155">
        <ele>1395.2</ele>
        <time>2020-05-21T15:09:47Z</time>
      </trkpt>
      <trkpt lat="42.720386" lon="0.656035">
        <ele>1393.6</ele>
        <time>2020-05-21T15:09:56Z</time>
      </trkpt>
      <trkpt lat="42.720433" lon="0.655932">
        <ele>1392.6</ele>
        <time>2020-05-21T15:10:04Z</time>
      </trkpt>
      <trkpt lat="42.720485" lon="0.655815">
        <ele>1391.9</ele>
        <time>2020-05-21T15:10:13Z</time>
      </trkpt>
      <trkpt lat="42.720518" lon="0.655692">
        <ele>1389.8</ele>
        <time>2020-05-21T15:10:22Z</time>
      </trkpt>
      <trkpt lat="42.720571" lon="0.655589">
        <ele>1389.0</ele>
        <time>2020-05-21T15:10:30Z</time>
      </trkpt>
      <trkpt lat="42.720633" lon="0.655500">
        <ele>1388.2</ele>
        <time>2020-05-21T15:10:38Z</time>
      </trkpt>
      <trkpt lat="42.720700" lon="0.655410">
        <ele>1387.3</ele>
        <time>2020-05-21T15:10:46Z</time>
      </trkpt>
      <trkpt lat="42.720771" lon="0.655319">
        <ele>1386.5</ele>
        <time>2020-05-21T15:10:54Z</time>
      </trkpt>
      <trkpt lat="42.720829" lon="0.655210">
        <ele>1385.6</ele>
        <time>2020-05-21T15:11:02Z</time>
      </trkpt>
      <trkpt lat="42.720872" lon="0.655097">
        <ele>1385.6</ele>
        <time>2020-05-21T15:11:11Z</time>
      </trkpt>
      <trkpt lat="42.720905" lon="0.654978">
        <ele>1385.5</ele>
        <time>2020-05-21T15:11:20Z</time>
      </trkpt>
      <trkpt lat="42.720940" lon="0.654852">
        <ele>1384.6</ele>
        <time>2020-05-21T15:11:29Z</time>
      </trkpt>
      <trkpt lat="42.720969" lon="0.654731">
        <ele>1384.6</ele>
        <time>2020-05-21T15:11:38Z</time>
      </trkpt>
      <trkpt lat="42.721008" lon="0.654620">
        <ele>1384.5</ele>
        <time>2020-05-21T15:11:47Z</time>
      </trkpt>
      <trkpt lat="42.721043" lon="0.654505">
        <ele>1383.5</ele>
        <time>2020-05-21T15:11:55Z</time>
      </trkpt>
      <trkpt lat="42.721102" lon="0.654410">
        <ele>1382.6</ele>
        <time>2020-05-21T15:12:03Z</time>
      </trkpt>
      <trkpt lat="42.721166" lon="0.654325">
        <ele>1380.9</ele>
        <time>2020-05-21T15:12:11Z</time>
      </trkpt>
      <trkpt lat="42.721239" lon="0.654248">
        <ele>1380.1</ele>
        <time>2020-05-21T15:12:19Z</time>
      </trkpt>
      <trkpt lat="42.721305" lon="0.654144">
        <ele>1378.3</ele>
        <time>2020-05-21T15:12:28Z</time>
      </trkpt>
      <trkpt lat="42.721344" lon="0.654032">
        <ele>1376.4</ele>
        <time>2020-05-21T15:12:37Z</time>
      </trkpt>
      <trkpt lat="42.721382" lon="0.653908">
        <ele>1375.5</ele>
        <time>2020-05-21T15:12:45Z</time>
      </trkpt>
      <trkpt lat="42.721441" lon="0.653795">
        <ele>1374.7</ele>
        <time>2020-05-21T15:12:53Z</time>
      </trkpt>
      <trkpt lat="42.721503" lon="0.653694">
        <ele>1374.7</ele>
        <time>2020-05-21T15:13:02Z</time>
      </trkpt>
      <trkpt lat="42.721569" lon="0.653595">
        <ele>1373.9</ele>
        <time>2020-05-21T15:13:11Z</time>
      </trkpt>
      <trkpt lat="42.721633" lon="0.653500">
        <ele>1373.8</ele>
        <time>2020-05-21T15:13:19Z</time>
      </trkpt>
      <trkpt lat="42.721713" lon="0.653402">
        <ele>1372.1</ele>
        <time>2020-05-21T15:13:28Z</time>
      </trkpt>
      <trkpt lat="42.721809" lon="0.653332">
        <ele>1371.1</ele>
        <time>2020-05-21T15:13:37Z</time>
      </trkpt>
      <trkpt lat="42.721918" lon="0.653304">
        <ele>1369.2</ele>
        <time>2020-05-21T15:13:45Z</time>
      </trkpt>
      <trkpt lat="42.722019" lon="0.653286">
        <ele>1368.3</ele>
        <time>2020-05-21T15:13:52Z</time>
      </trkpt>
      <trkpt lat="42.722130" lon="0.653255">
        <ele>1366.5</ele>
        <time>2020-05-21T15:14:00Z</time>
      </trkpt>
      <trkpt lat="42.722235" lon="0.653227">
        <ele>1365.7</ele>
        <time>2020-05-21T15:14:07Z</time>
      </trkpt>
      <trkpt lat="42.722331" lon="0.653203">
        <ele>1363.9</ele>
        <time>2020-05-21T15:14:14Z</time>
      </trkpt>
      <trkpt lat="42.722440" lon="0.653176">
        <ele>1362.2</ele>
        <time>2020-05-21T15:14:23Z</time>
      </trkpt>
      <trkpt lat="42.722552" lon="0.653128">
        <ele>1360.5</ele>
        <time>2020-05-21T15:14:34Z</time>
      </trkpt>
    </trkseg>
  </trk>
</gpx>

